Darstellungsparameter: Aktuell verwendete Einstellungen:
Skalierung der Graphiken ... ?
xyx+y,   Skalierungsfaktor:      Skalierung: Modus: x, Faktor: 1
Darstellungszeitraum ... ?
Vom - - bis: - -   Zeitraum: 31.05.2017 - 06.06.2017
Min/Max/Avg-Anzeige ... ?
Zeige MMA aktuell
Zeige MMA Monat
Zeige MMA alles
Zeige --A aktuell
Zeige --A Monat
Zeige --A alles
Keine MMA-Anzeige
MMA:
Keine MMA-Graphiken
MMA-Basis: 31.05.2017 - 06.06.2017
Quicknavigation für Darstellung... ?
Tage:      1T, 2T, 3T, 5T -1T -2T -3T -5T +1T +2T +3T +5T
Wochen: 1W, 2W, 3W -1W -2W -3W +1W +2W +3W
Monate: 1M, 3M, 6M -1M -3M -6M +1M +3M +6M
Jahre:    1J, 3J, 5J, 10J -1J -3J -5J -10J +1J +3J +5J +10J
Nutze für die Darstellung ... ?
Originaldaten oder Mittelwerte auf ...
Stundenbasis Tagesbasis Wochenbasis
Monatsbasis Jahresbasis      Datenbasis: Original-Daten
Darstellen als:
Statistik (Auto) Statistik J:M      Darstellung:
Zur Graphik,    zurück zur Übersicht aller Sensoren.
 
Tabellarische Datenbersicht: ?
 
Sensor: Nr:Datum:Temp:Feuchte:Taupunkt:
Aussen-T/F 1 31-05-2017 00:00:00 18.4 C 71 % 13.05 C
2 31-05-2017 00:05:00 18.2 C 71 % 12.86 C
3 31-05-2017 00:10:00 18.2 C 71 % 12.86 C
4 31-05-2017 00:15:00 18.2 C 71 % 12.86 C
5 31-05-2017 00:20:00 18.2 C 71 % 12.86 C
6 31-05-2017 00:25:00 18.1 C 71 % 12.76 C
7 31-05-2017 00:30:00 18.1 C 71 % 12.76 C
8 31-05-2017 00:35:00 18 C 70 % 12.45 C
9 31-05-2017 00:40:00 18 C 70 % 12.45 C
10 31-05-2017 00:45:00 18 C 70 % 12.45 C
11 31-05-2017 00:50:00 18 C 70 % 12.45 C
12 31-05-2017 00:55:00 17.9 C 71 % 12.57 C
13 31-05-2017 01:00:00 17.8 C 73 % 12.9 C
14 31-05-2017 01:05:00 17.7 C 71 % 12.38 C
15 31-05-2017 01:10:00 17.7 C 73 % 12.8 C
16 31-05-2017 01:15:00 17.6 C 71 % 12.28 C
17 31-05-2017 01:20:00 17.5 C 71 % 12.19 C
18 31-05-2017 01:25:00 17.5 C 71 % 12.19 C
19 31-05-2017 01:30:00 17.5 C 71 % 12.19 C
20 31-05-2017 01:35:00 17.6 C 73 % 12.71 C
21 31-05-2017 01:40:00 17.5 C 73 % 12.61 C
22 31-05-2017 01:45:00 17.4 C 72 % 12.3 C
23 31-05-2017 01:50:00 17.4 C 74 % 12.72 C
24 31-05-2017 01:55:00 17.3 C 73 % 12.42 C
25 31-05-2017 02:00:00 17.2 C 73 % 12.32 C
Sensor: Nr:Datum:Temp:Feuchte:Taupunkt:
Aussen-T/F 26 31-05-2017 02:05:00 17.1 C 74 % 12.43 C
27 31-05-2017 02:10:00 17 C 75 % 12.54 C
28 31-05-2017 02:15:00 16.8 C 76 % 12.55 C
29 31-05-2017 02:20:00 16.6 C 76 % 12.36 C
30 31-05-2017 02:25:00 16.4 C 76 % 12.16 C
31 31-05-2017 02:30:00 16.2 C 77 % 12.17 C
32 31-05-2017 02:35:00 15.9 C 77 % 11.88 C
33 31-05-2017 02:40:00 15.8 C 77 % 11.78 C
34 31-05-2017 02:45:00 15.6 C 78 % 11.78 C
35 31-05-2017 02:50:00 15.4 C 78 % 11.59 C
36 31-05-2017 02:55:00 15.3 C 78 % 11.49 C
37 31-05-2017 03:00:00 15.1 C 78 % 11.3 C
38 31-05-2017 03:05:00 15.1 C 78 % 11.3 C
39 31-05-2017 03:10:00 14.9 C 78 % 11.1 C
40 31-05-2017 03:15:00 14.8 C 78 % 11 C
41 31-05-2017 03:20:00 14.7 C 79 % 11.1 C
42 31-05-2017 03:25:00 14.6 C 79 % 11 C
43 31-05-2017 03:30:00 14.4 C 80 % 11 C
44 31-05-2017 03:35:00 14.3 C 80 % 10.9 C
45 31-05-2017 03:40:00 14.2 C 81 % 10.99 C
46 31-05-2017 03:45:00 14 C 82 % 10.98 C
47 31-05-2017 03:50:00 13.9 C 82 % 10.88 C
48 31-05-2017 03:55:00 13.8 C 83 % 10.97 C
49 31-05-2017 04:00:00 13.7 C 83 % 10.87 C
50 31-05-2017 04:05:00 13.6 C 84 % 10.95 C
Sensor: Nr:Datum:Temp:Feuchte:Taupunkt:
Aussen-T/F 51 31-05-2017 04:10:00 13.5 C 84 % 10.85 C
52 31-05-2017 04:15:00 13.3 C 84 % 10.66 C
53 31-05-2017 04:20:00 13.2 C 85 % 10.74 C
54 31-05-2017 04:25:00 13.1 C 85 % 10.64 C
55 31-05-2017 04:30:00 13.1 C 85 % 10.64 C
56 31-05-2017 04:35:00 12.9 C 86 % 10.62 C
57 31-05-2017 04:40:00 12.8 C 86 % 10.52 C
58 31-05-2017 04:45:00 12.8 C 86 % 10.52 C
59 31-05-2017 04:50:00 12.7 C 87 % 10.59 C
60 31-05-2017 04:55:00 12.7 C 87 % 10.59 C
61 31-05-2017 05:00:00 12.6 C 87 % 10.5 C
62 31-05-2017 05:05:00 12.6 C 87 % 10.5 C
63 31-05-2017 05:10:00 12.6 C 87 % 10.5 C
64 31-05-2017 05:15:00 12.5 C 87 % 10.4 C
65 31-05-2017 05:20:00 12.4 C 87 % 10.3 C
66 31-05-2017 05:25:00 12.4 C 88 % 10.47 C
67 31-05-2017 05:30:00 12.3 C 88 % 10.37 C
68 31-05-2017 05:35:00 12.3 C 88 % 10.37 C
69 31-05-2017 05:40:00 12.3 C 89 % 10.54 C
70 31-05-2017 05:45:00 12.2 C 89 % 10.44 C
71 31-05-2017 05:50:00 12.2 C 89 % 10.44 C
72 31-05-2017 05:55:00 12.1 C 89 % 10.34 C
73 31-05-2017 06:00:00 12.1 C 90 % 10.51 C
74 31-05-2017 06:05:00 12.2 C 90 % 10.61 C
75 31-05-2017 06:10:00 12.2 C 90 % 10.61 C
Sensor: Nr:Datum:Temp:Feuchte:Taupunkt:
Aussen-T/F 76 31-05-2017 06:15:00 12.1 C 90 % 10.51 C
77 31-05-2017 06:20:00 12.2 C 91 % 10.78 C
78 31-05-2017 06:25:00 12.2 C 91 % 10.78 C
79 31-05-2017 06:30:00 12.2 C 91 % 10.78 C
80 31-05-2017 06:35:00 12.3 C 91 % 10.87 C
81 31-05-2017 06:40:00 12.3 C 92 % 11.04 C
82 31-05-2017 06:45:00 12.4 C 92 % 11.14 C
83 31-05-2017 06:50:00 12.6 C 92 % 11.34 C
84 31-05-2017 06:55:00 12.7 C 92 % 11.43 C
85 31-05-2017 07:00:00 12.8 C 92 % 11.53 C
86 31-05-2017 07:05:00 12.8 C 91 % 11.37 C
87 31-05-2017 07:10:00 12.9 C 91 % 11.47 C
88 31-05-2017 07:15:00 12.9 C 91 % 11.47 C
89 31-05-2017 07:20:00 12.9 C 90 % 11.3 C
90 31-05-2017 07:25:00 12.9 C 90 % 11.3 C
91 31-05-2017 07:30:00 12.9 C 91 % 11.47 C
92 31-05-2017 07:35:00 13 C 91 % 11.57 C
93 31-05-2017 07:40:00 13.1 C 91 % 11.67 C
94 31-05-2017 07:45:00 13.2 C 91 % 11.76 C
95 31-05-2017 07:50:00 13.3 C 91 % 11.86 C
96 31-05-2017 07:55:00 13.3 C 91 % 11.86 C
97 31-05-2017 08:00:00 13.4 C 91 % 11.96 C
98 31-05-2017 08:05:00 13.5 C 91 % 12.06 C
99 31-05-2017 08:10:00 13.6 C 91 % 12.16 C
100 31-05-2017 08:15:00 13.7 C 91 % 12.26 C
Sensor: Nr:Datum:Temp:Feuchte:Taupunkt:
Aussen-T/F 101 31-05-2017 08:20:00 13.9 C 90 % 12.29 C
102 31-05-2017 08:25:00 14.1 C 89 % 12.32 C
103 31-05-2017 08:30:00 14.3 C 89 % 12.51 C
104 31-05-2017 08:35:00 14.4 C 89 % 12.61 C
105 31-05-2017 08:40:00 14.6 C 87 % 12.46 C
106 31-05-2017 08:45:00 14.8 C 88 % 12.83 C
107 31-05-2017 08:50:00 14.8 C 88 % 12.83 C
108 31-05-2017 08:55:00 14.9 C 86 % 12.58 C
109 31-05-2017 09:00:00 15.2 C 85 % 12.7 C
110 31-05-2017 09:05:00 15.3 C 86 % 12.97 C
111 31-05-2017 09:10:00 15.4 C 86 % 13.07 C
112 31-05-2017 09:15:00 15.5 C 85 % 12.99 C
113 31-05-2017 09:20:00 15.7 C 83 % 12.82 C
114 31-05-2017 09:25:00 15.8 C 82 % 12.74 C
115 31-05-2017 09:30:00 16.1 C 81 % 12.84 C
116 31-05-2017 09:35:00 16.4 C 80 % 12.94 C
117 31-05-2017 09:40:00 16.7 C 79 % 13.04 C
118 31-05-2017 09:45:00 16.8 C 78 % 12.94 C
119 31-05-2017 09:50:00 16.9 C 79 % 13.24 C
120 31-05-2017 09:55:00 17.1 C 76 % 12.84 C
121 31-05-2017 10:00:00 17.2 C 76 % 12.94 C
122 31-05-2017 10:05:00 17.5 C 76 % 13.23 C
123 31-05-2017 10:10:00 17.7 C 75 % 13.22 C
124 31-05-2017 10:15:00 17.9 C 74 % 13.2 C
125 31-05-2017 10:20:00 18.2 C 73 % 13.28 C
Sensor: Nr:Datum:Temp:Feuchte:Taupunkt:
Aussen-T/F 126 31-05-2017 10:25:00 18.6 C 72 % 13.46 C
127 31-05-2017 10:30:00 18.9 C 73 % 13.96 C
128 31-05-2017 10:35:00 19.1 C 70 % 13.5 C
129 31-05-2017 10:40:00 19.2 C 68 % 13.15 C
130 31-05-2017 10:45:00 19.1 C 67 % 12.83 C
131 31-05-2017 10:50:00 19.1 C 68 % 13.06 C
132 31-05-2017 10:55:00 19.2 C 67 % 12.93 C
133 31-05-2017 11:00:00 19.2 C 68 % 13.15 C
134 31-05-2017 11:05:00 19.3 C 68 % 13.25 C
135 31-05-2017 11:10:00 19.4 C 66 % 12.89 C
136 31-05-2017 11:15:00 19.6 C 66 % 13.08 C
137 31-05-2017 11:20:00 19.8 C 65 % 13.03 C
138 31-05-2017 11:25:00 19.8 C 66 % 13.27 C
139 31-05-2017 11:30:00 19.7 C 65 % 12.94 C
140 31-05-2017 11:35:00 19.7 C 64 % 12.7 C
141 31-05-2017 11:40:00 19.8 C 63 % 12.56 C
142 31-05-2017 11:45:00 20.1 C 65 % 13.32 C
143 31-05-2017 11:50:00 20.2 C 63 % 12.94 C
144 31-05-2017 11:55:00 20.3 C 64 % 13.27 C
145 31-05-2017 12:00:00 20.3 C 63 % 13.03 C
146 31-05-2017 12:05:00 20.3 C 61 % 12.54 C
147 31-05-2017 12:10:00 20.5 C 63 % 13.22 C
148 31-05-2017 12:15:00 20.7 C 63 % 13.41 C
149 31-05-2017 12:20:00 20.6 C 62 % 13.07 C
150 31-05-2017 12:25:00 20.7 C 62 % 13.16 C
Sensor: Nr:Datum:Temp:Feuchte:Taupunkt:
Aussen-T/F 151 31-05-2017 12:30:00 20.7 C 61 % 12.91 C
152 31-05-2017 12:35:00 20.7 C 61 % 12.91 C
153 31-05-2017 12:40:00 20.6 C 61 % 12.82 C
154 31-05-2017 12:45:00 20.6 C 61 % 12.82 C
155 31-05-2017 12:50:00 20.7 C 62 % 13.16 C
156 31-05-2017 12:55:00 20.9 C 62 % 13.35 C
157 31-05-2017 13:00:00 21.2 C 60 % 13.13 C
158 31-05-2017 13:05:00 21.3 C 60 % 13.22 C
159 31-05-2017 13:10:00 21.3 C 60 % 13.22 C
160 31-05-2017 13:15:00 21.4 C 59 % 13.06 C
161 31-05-2017 13:20:00 21.5 C 62 % 13.92 C
162 31-05-2017 13:25:00 21.7 C 59 % 13.34 C
163 31-05-2017 13:30:00 21.7 C 56 % 12.54 C
164 31-05-2017 13:35:00 21.6 C 57 % 12.72 C
165 31-05-2017 13:40:00 21.5 C 58 % 12.89 C
166 31-05-2017 13:45:00 21.5 C 57 % 12.63 C
167 31-05-2017 13:50:00 21.5 C 57 % 12.63 C
168 31-05-2017 13:55:00 21.6 C 57 % 12.72 C
169 31-05-2017 14:00:00 21.7 C 56 % 12.54 C
170 31-05-2017 14:05:00 21.8 C 55 % 12.36 C
171 31-05-2017 14:10:00 22.1 C 56 % 12.92 C
172 31-05-2017 14:15:00 22.3 C 54 % 12.55 C
173 31-05-2017 14:20:00 22.6 C 54 % 12.83 C
174 31-05-2017 14:25:00 22.6 C 54 % 12.83 C
175 31-05-2017 14:30:00 22.6 C 53 % 12.54 C
Sensor: Nr:Datum:Temp:Feuchte:Taupunkt:
Aussen-T/F 176 31-05-2017 14:35:00 22.7 C 53 % 12.63 C
177 31-05-2017 14:40:00 22.8 C 55 % 13.29 C
178 31-05-2017 14:45:00 23.1 C 52 % 12.71 C
179 31-05-2017 14:50:00 22.8 C 53 % 12.73 C
180 31-05-2017 14:55:00 22.7 C 52 % 12.34 C
181 31-05-2017 15:00:00 22.5 C 53 % 12.45 C
182 31-05-2017 15:05:00 22.7 C 55 % 13.2 C
183 31-05-2017 15:10:00 23 C 53 % 12.91 C
184 31-05-2017 15:15:00 23.3 C 50 % 12.3 C
185 31-05-2017 15:20:00 23.2 C 51 % 12.51 C
186 31-05-2017 15:25:00 23.3 C 53 % 13.19 C
187 31-05-2017 15:30:00 23.8 C 53 % 13.65 C
188 31-05-2017 15:35:00 24.4 C 50 % 13.31 C
189 31-05-2017 15:40:00 24.4 C 48 % 12.68 C
190 31-05-2017 15:45:00 24.2 C 49 % 12.81 C
191 31-05-2017 15:50:00 24.3 C 48 % 12.59 C
192 31-05-2017 15:55:00 24.3 C 48 % 12.59 C
193 31-05-2017 16:00:00 24.2 C 47 % 12.18 C
194 31-05-2017 16:05:00 24 C 47 % 12 C
195 31-05-2017 16:10:00 24.1 C 48 % 12.41 C
196 31-05-2017 16:15:00 24.2 C 49 % 12.81 C
197 31-05-2017 16:20:00 24.8 C 46 % 12.4 C
198 31-05-2017 16:25:00 25.3 C 45 % 12.52 C
199 31-05-2017 16:30:00 25.4 C 43 % 11.92 C
200 31-05-2017 16:35:00 25.5 C 46 % 13.03 C
Sensor: Nr:Datum:Temp:Feuchte:Taupunkt:
Aussen-T/F 201 31-05-2017 16:40:00 25.6 C 43 % 12.1 C
202 31-05-2017 16:45:00 25.4 C 45 % 12.61 C
203 31-05-2017 16:50:00 24.9 C 43 % 11.47 C
204 31-05-2017 16:55:00 24.8 C 44 % 11.72 C
205 31-05-2017 17:00:00 24.4 C 43 % 11.02 C
206 31-05-2017 17:05:00 24.2 C 44 % 11.18 C
207 31-05-2017 17:10:00 24.1 C 44 % 11.09 C
208 31-05-2017 17:15:00 24.1 C 45 % 11.43 C
209 31-05-2017 17:20:00 24.1 C 45 % 11.43 C
210 31-05-2017 17:25:00 24.1 C 45 % 11.43 C
211 31-05-2017 17:30:00 24.2 C 45 % 11.52 C
212 31-05-2017 17:35:00 24.6 C 45 % 11.88 C
213 31-05-2017 17:40:00 24.8 C 44 % 11.72 C
214 31-05-2017 17:45:00 24.8 C 44 % 11.72 C
215 31-05-2017 17:50:00 24.8 C 45 % 12.06 C
216 31-05-2017 17:55:00 25 C 44 % 11.9 C
217 31-05-2017 18:00:00 25.3 C 45 % 12.52 C
218 31-05-2017 18:05:00 25.8 C 43 % 12.28 C
219 31-05-2017 18:10:00 25.9 C 41 % 11.64 C
220 31-05-2017 18:15:00 25.4 C 42 % 11.56 C
221 31-05-2017 18:20:00 25 C 44 % 11.9 C
222 31-05-2017 18:25:00 24.6 C 44 % 11.54 C
223 31-05-2017 18:30:00 24.3 C 45 % 11.61 C
224 31-05-2017 18:35:00 24.2 C 46 % 11.85 C
225 31-05-2017 18:40:00 24.1 C 46 % 11.76 C
Sensor: Nr:Datum:Temp:Feuchte:Taupunkt:
Aussen-T/F 226 31-05-2017 18:45:00 24 C 45 % 11.34 C
227 31-05-2017 18:50:00 24 C 47 % 12 C
228 31-05-2017 18:55:00 23.9 C 46 % 11.58 C
229 31-05-2017 19:00:00 23.9 C 46 % 11.58 C
230 31-05-2017 19:05:00 23.9 C 46 % 11.58 C
231 31-05-2017 19:10:00 24 C 46 % 11.67 C
232 31-05-2017 19:15:00 23.9 C 47 % 11.91 C
233 31-05-2017 19:20:00 23.8 C 48 % 12.14 C
234 31-05-2017 19:25:00 23.6 C 48 % 11.95 C
235 31-05-2017 19:30:00 23.6 C 47 % 11.63 C
236 31-05-2017 19:35:00 23.7 C 48 % 12.04 C
237 31-05-2017 19:40:00 23.8 C 46 % 11.49 C
238 31-05-2017 19:45:00 23.9 C 47 % 11.91 C
239 31-05-2017 19:50:00 23.8 C 46 % 11.49 C
240 31-05-2017 19:55:00 23.7 C 48 % 12.04 C
241 31-05-2017 20:00:00 23.4 C 49 % 12.08 C
242 31-05-2017 20:05:00 23.3 C 50 % 12.3 C
243 31-05-2017 20:10:00 23.2 C 51 % 12.51 C
244 31-05-2017 20:15:00 23.1 C 52 % 12.71 C
245 31-05-2017 20:20:00 23.1 C 53 % 13 C
246 31-05-2017 20:25:00 22.9 C 52 % 12.53 C
247 31-05-2017 20:30:00 22.8 C 58 % 14.11 C
248 31-05-2017 20:35:00 22.7 C 59 % 14.28 C
249 31-05-2017 20:40:00 22.4 C 61 % 14.51 C
250 31-05-2017 20:45:00 22.1 C 62 % 14.48 C
Sensor: Nr:Datum:Temp:Feuchte:Taupunkt:
Aussen-T/F 251 31-05-2017 20:50:00 21.8 C 63 % 14.45 C
252 31-05-2017 20:55:00 21.4 C 64 % 14.31 C
253 31-05-2017 21:00:00 21 C 65 % 14.17 C
254 31-05-2017 21:05:00 20.6 C 66 % 14.03 C
255 31-05-2017 21:10:00 20.2 C 67 % 13.88 C
256 31-05-2017 21:15:00 19.9 C 67 % 13.59 C
257 31-05-2017 21:20:00 19.6 C 68 % 13.54 C
258 31-05-2017 21:25:00 19.3 C 69 % 13.47 C
259 31-05-2017 21:30:00 19.1 C 69 % 13.28 C
260 31-05-2017 21:35:00 18.8 C 69 % 13 C
261 31-05-2017 21:40:00 18.7 C 70 % 13.12 C
262 31-05-2017 21:45:00 18.5 C 70 % 12.93 C
263 31-05-2017 21:50:00 18.3 C 70 % 12.74 C
264 31-05-2017 21:55:00 18.2 C 69 % 12.42 C
265 31-05-2017 22:00:00 18.1 C 70 % 12.55 C
266 31-05-2017 22:05:00 18 C 70 % 12.45 C
267 31-05-2017 22:10:00 17.9 C 70 % 12.35 C
268 31-05-2017 22:15:00 17.8 C 70 % 12.26 C
269 31-05-2017 22:20:00 17.8 C 71 % 12.47 C
270 31-05-2017 22:25:00 17.7 C 71 % 12.38 C
271 31-05-2017 22:30:00 17.7 C 72 % 12.59 C
272 31-05-2017 22:35:00 17.6 C 73 % 12.71 C
273 31-05-2017 22:40:00 17.4 C 74 % 12.72 C
274 31-05-2017 22:45:00 17.2 C 75 % 12.73 C
275 31-05-2017 22:50:00 17.1 C 75 % 12.64 C
Sensor: Nr:Datum:Temp:Feuchte:Taupunkt:
Aussen-T/F 276 31-05-2017 22:55:00 16.8 C 76 % 12.55 C
277 31-05-2017 23:00:00 16.4 C 77 % 12.36 C
278 31-05-2017 23:05:00 16.2 C 77 % 12.17 C
279 31-05-2017 23:10:00 16.1 C 78 % 12.27 C
280 31-05-2017 23:15:00 15.9 C 79 % 12.27 C
281 31-05-2017 23:20:00 15.8 C 79 % 12.17 C
282 31-05-2017 23:25:00 15.6 C 80 % 12.16 C
283 31-05-2017 23:30:00 15.3 C 80 % 11.87 C
284 31-05-2017 23:35:00 15.2 C 81 % 11.96 C
285 31-05-2017 23:40:00 15.2 C 81 % 11.96 C
286 31-05-2017 23:45:00 15.1 C 82 % 12.05 C
287 31-05-2017 23:50:00 14.9 C 82 % 11.86 C
288 31-05-2017 23:55:00 14.8 C 83 % 11.94 C
289 01-06-2017 00:00:00 14.7 C 83 % 11.85 C
290 01-06-2017 00:05:00 14.7 C 83 % 11.85 C
291 01-06-2017 00:10:00 14.7 C 84 % 12.03 C
292 01-06-2017 00:15:00 14.7 C 84 % 12.03 C
293 01-06-2017 00:20:00 14.7 C 84 % 12.03 C
294 01-06-2017 00:25:00 14.7 C 84 % 12.03 C
295 01-06-2017 00:30:00 14.6 C 84 % 11.93 C
296 01-06-2017 00:35:00 14.5 C 84 % 11.83 C
297 01-06-2017 00:40:00 14.4 C 85 % 11.91 C
298 01-06-2017 00:45:00 14.3 C 85 % 11.81 C
299 01-06-2017 00:50:00 14.2 C 85 % 11.72 C
300 01-06-2017 00:55:00 14.1 C 86 % 11.8 C
Sensor: Nr:Datum:Temp:Feuchte:Taupunkt:
Aussen-T/F 301 01-06-2017 01:00:00 13.9 C 86 % 11.6 C
302 01-06-2017 01:05:00 13.9 C 86 % 11.6 C
303 01-06-2017 01:10:00 13.8 C 87 % 11.68 C
304 01-06-2017 01:15:00 13.8 C 87 % 11.68 C
305 01-06-2017 01:20:00 13.7 C 87 % 11.58 C
306 01-06-2017 01:25:00 13.7 C 87 % 11.58 C
307 01-06-2017 01:30:00 13.6 C 88 % 11.65 C
308 01-06-2017 01:35:00 13.5 C 88 % 11.55 C
309 01-06-2017 01:40:00 13.4 C 88 % 11.45 C
310 01-06-2017 01:45:00 13.4 C 89 % 11.63 C
311 01-06-2017 01:50:00 13.3 C 89 % 11.53 C
312 01-06-2017 01:55:00 13.3 C 89 % 11.53 C
313 01-06-2017 02:00:00 13.3 C 89 % 11.53 C
314 01-06-2017 02:05:00 13.3 C 89 % 11.53 C
315 01-06-2017 02:10:00 13.2 C 89 % 11.43 C
316 01-06-2017 02:15:00 13.2 C 90 % 11.6 C
317 01-06-2017 02:20:00 13.2 C 90 % 11.6 C
318 01-06-2017 02:25:00 13.2 C 90 % 11.6 C
319 01-06-2017 02:30:00 13.1 C 90 % 11.5 C
320 01-06-2017 02:35:00 13.1 C 90 % 11.5 C
321 01-06-2017 02:40:00 13 C 90 % 11.4 C
322 01-06-2017 02:45:00 12.9 C 90 % 11.3 C
323 01-06-2017 02:50:00 12.9 C 91 % 11.47 C
324 01-06-2017 02:55:00 12.9 C 91 % 11.47 C
325 01-06-2017 03:00:00 12.9 C 91 % 11.47 C
Sensor: Nr:Datum:Temp:Feuchte:Taupunkt:
Aussen-T/F 326 01-06-2017 03:05:00 12.8 C 91 % 11.37 C
327 01-06-2017 03:10:00 12.8 C 91 % 11.37 C
328 01-06-2017 03:15:00 12.8 C 91 % 11.37 C
329 01-06-2017 03:20:00 12.7 C 91 % 11.27 C
330 01-06-2017 03:25:00 12.7 C 91 % 11.27 C
331 01-06-2017 03:30:00 12.6 C 91 % 11.17 C
332 01-06-2017 03:35:00 12.6 C 91 % 11.17 C
333 01-06-2017 03:40:00 12.6 C 91 % 11.17 C
334 01-06-2017 03:45:00 12.5 C 91 % 11.07 C
335 01-06-2017 03:50:00 12.4 C 91 % 10.97 C
336 01-06-2017 03:55:00 12.4 C 92 % 11.14 C
337 01-06-2017 04:00:00 12.3 C 92 % 11.04 C
338 01-06-2017 04:05:00 12.3 C 92 % 11.04 C
339 01-06-2017 04:10:00 12.3 C 92 % 11.04 C
340 01-06-2017 04:15:00 12.2 C 92 % 10.94 C
341 01-06-2017 04:20:00 12.2 C 92 % 10.94 C
342 01-06-2017 04:25:00 12.2 C 92 % 10.94 C
343 01-06-2017 04:30:00 12.2 C 92 % 10.94 C
344 01-06-2017 04:35:00 12.2 C 93 % 11.1 C
345 01-06-2017 04:40:00 12.1 C 92 % 10.84 C
346 01-06-2017 04:45:00 12.1 C 92 % 10.84 C
347 01-06-2017 04:50:00 12 C 92 % 10.74 C
348 01-06-2017 04:55:00 11.9 C 93 % 10.81 C
349 01-06-2017 05:00:00 11.9 C 93 % 10.81 C
350 01-06-2017 05:05:00 11.9 C 93 % 10.81 C
Sensor: Nr:Datum:Temp:Feuchte:Taupunkt:
Aussen-T/F 351 01-06-2017 05:10:00 11.8 C 93 % 10.71 C
352 01-06-2017 05:15:00 11.8 C 93 % 10.71 C
353 01-06-2017 05:20:00 11.8 C 93 % 10.71 C
354 01-06-2017 05:25:00 11.7 C 93 % 10.61 C
355 01-06-2017 05:30:00 11.7 C 93 % 10.61 C
356 01-06-2017 05:35:00 11.8 C 93 % 10.71 C
357 01-06-2017 05:40:00 11.8 C 93 % 10.71 C
358 01-06-2017 05:45:00 11.7 C 93 % 10.61 C
359 01-06-2017 05:50:00 11.8 C 94 % 10.87 C
360 01-06-2017 05:55:00 11.8 C 94 % 10.87 C
361 01-06-2017 06:00:00 11.8 C 93 % 10.71 C
362 01-06-2017 06:05:00 11.7 C 94 % 10.77 C
363 01-06-2017 06:10:00 11.7 C 94 % 10.77 C
364 01-06-2017 06:15:00 11.7 C 94 % 10.77 C
365 01-06-2017 06:20:00 11.7 C 94 % 10.77 C
366 01-06-2017 06:25:00 11.7 C 94 % 10.77 C
367 01-06-2017 06:30:00 11.8 C 94 % 10.87 C
368 01-06-2017 06:35:00 11.8 C 94 % 10.87 C
369 01-06-2017 06:40:00 11.8 C 94 % 10.87 C
370 01-06-2017 06:45:00 11.9 C 94 % 10.97 C
371 01-06-2017 06:50:00 12 C 94 % 11.07 C
372 01-06-2017 06:55:00 12.2 C 95 % 11.42 C
373 01-06-2017 07:00:00 12.3 C 94 % 11.36 C
374 01-06-2017 07:05:00 12.3 C 94 % 11.36 C
375 01-06-2017 07:10:00 12.4 C 95 % 11.62 C
Sensor: Nr:Datum:Temp:Feuchte:Taupunkt:
Aussen-T/F 376 01-06-2017 07:15:00 12.5 C 94 % 11.56 C
377 01-06-2017 07:20:00 12.6 C 94 % 11.66 C
378 01-06-2017 07:25:00 12.7 C 94 % 11.76 C
379 01-06-2017 07:30:00 12.7 C 94 % 11.76 C
380 01-06-2017 07:35:00 12.8 C 94 % 11.86 C
381 01-06-2017 07:40:00 12.8 C 94 % 11.86 C
382 01-06-2017 07:45:00 12.9 C 94 % 11.96 C
383 01-06-2017 07:50:00 12.9 C 94 % 11.96 C
384 01-06-2017 07:55:00 13 C 94 % 12.06 C
385 01-06-2017 08:00:00 13.1 C 94 % 12.16 C
386 01-06-2017 08:05:00 13.3 C 94 % 12.36 C
387 01-06-2017 08:10:00 13.4 C 94 % 12.45 C
388 01-06-2017 08:15:00 13.5 C 93 % 12.39 C
389 01-06-2017 08:20:00 13.6 C 93 % 12.49 C
390 01-06-2017 08:25:00 13.8 C 93 % 12.69 C
391 01-06-2017 08:30:00 13.9 C 93 % 12.79 C
392 01-06-2017 08:35:00 14.1 C 93 % 12.99 C
393 01-06-2017 08:40:00 14.2 C 93 % 13.08 C
394 01-06-2017 08:45:00 14.3 C 93 % 13.18 C
395 01-06-2017 08:50:00 14.4 C 93 % 13.28 C
396 01-06-2017 08:55:00 14.6 C 93 % 13.48 C
397 01-06-2017 09:00:00 14.8 C 93 % 13.68 C
398 01-06-2017 09:05:00 14.9 C 92 % 13.61 C
399 01-06-2017 09:10:00 15.1 C 91 % 13.64 C
400 01-06-2017 09:15:00 15.3 C 91 % 13.84 C
Sensor: Nr:Datum:Temp:Feuchte:Taupunkt:
Aussen-T/F 401 01-06-2017 09:20:00 15.4 C 90 % 13.77 C
402 01-06-2017 09:25:00 15.7 C 89 % 13.89 C
403 01-06-2017 09:30:00 15.9 C 89 % 14.09 C
404 01-06-2017 09:35:00 16.2 C 89 % 14.39 C
405 01-06-2017 09:40:00 16.3 C 88 % 14.31 C
406 01-06-2017 09:45:00 16.4 C 87 % 14.23 C
407 01-06-2017 09:50:00 16.6 C 87 % 14.43 C
408 01-06-2017 09:55:00 16.7 C 86 % 14.35 C
409 01-06-2017 10:00:00 16.9 C 87 % 14.72 C
410 01-06-2017 10:05:00 17.1 C 85 % 14.56 C
411 01-06-2017 10:10:00 17.3 C 85 % 14.76 C
412 01-06-2017 10:15:00 17.6 C 84 % 14.87 C
413 01-06-2017 10:20:00 18.1 C 84 % 15.35 C
414 01-06-2017 10:25:00 18.6 C 81 % 15.28 C
415 01-06-2017 10:30:00 19.2 C 79 % 15.47 C
416 01-06-2017 10:35:00 19.7 C 77 % 15.56 C
417 01-06-2017 10:40:00 20.2 C 74 % 15.42 C
418 01-06-2017 10:45:00 20.6 C 73 % 15.59 C
419 01-06-2017 10:50:00 20.7 C 71 % 15.25 C
420 01-06-2017 10:55:00 20.7 C 70 % 15.03 C
421 01-06-2017 11:00:00 20.8 C 69 % 14.91 C
422 01-06-2017 11:05:00 20.8 C 68 % 14.68 C
423 01-06-2017 11:10:00 20.9 C 69 % 15 C
424 01-06-2017 11:15:00 20.9 C 67 % 14.55 C
425 01-06-2017 11:20:00 21 C 71 % 15.54 C
Sensor: Nr:Datum:Temp:Feuchte:Taupunkt:
Aussen-T/F 426 01-06-2017 11:25:00 20.9 C 64 % 13.84 C
427 01-06-2017 11:30:00 21.1 C 65 % 14.27 C
428 01-06-2017 11:35:00 21.2 C 65 % 14.36 C
429 01-06-2017 11:40:00 21.3 C 67 % 14.93 C
430 01-06-2017 11:45:00 21.5 C 63 % 14.16 C
431 01-06-2017 11:50:00 21.7 C 61 % 13.85 C
432 01-06-2017 11:55:00 21.8 C 60 % 13.69 C
433 01-06-2017 12:00:00 21.8 C 60 % 13.69 C
434 01-06-2017 12:05:00 21.9 C 62 % 14.29 C
435 01-06-2017 12:10:00 22.1 C 60 % 13.98 C
436 01-06-2017 12:15:00 22.2 C 58 % 13.55 C
437 01-06-2017 12:20:00 22.4 C 58 % 13.73 C
438 01-06-2017 12:25:00 22.5 C 54 % 12.73 C
439 01-06-2017 12:30:00 22.6 C 56 % 13.38 C
440 01-06-2017 12:35:00 22.7 C 56 % 13.47 C
441 01-06-2017 12:40:00 22.7 C 56 % 13.47 C
442 01-06-2017 12:45:00 22.7 C 57 % 13.75 C
443 01-06-2017 12:50:00 22.7 C 56 % 13.47 C
444 01-06-2017 12:55:00 22.8 C 54 % 13.01 C
445 01-06-2017 13:00:00 23.1 C 55 % 13.57 C
446 01-06-2017 13:05:00 23.1 C 53 % 13 C
447 01-06-2017 13:10:00 22.9 C 54 % 13.1 C
448 01-06-2017 13:15:00 23 C 50 % 12.02 C
449 01-06-2017 13:20:00 23.1 C 52 % 12.71 C
450 01-06-2017 13:25:00 23.2 C 52 % 12.8 C
Sensor: Nr:Datum:Temp:Feuchte:Taupunkt:
Aussen-T/F 451 01-06-2017 13:30:00 23.3 C 51 % 12.6 C
452 01-06-2017 13:35:00 23.4 C 50 % 12.39 C
453 01-06-2017 13:40:00 23.6 C 51 % 12.88 C
454 01-06-2017 13:45:00 23.7 C 55 % 14.13 C
455 01-06-2017 13:50:00 23.8 C 61 % 15.83 C
456 01-06-2017 13:55:00 23.7 C 63 % 16.24 C
457 01-06-2017 14:00:00 23.6 C 66 % 16.88 C
458 01-06-2017 14:05:00 23.4 C 56 % 14.13 C
459 01-06-2017 14:10:00 23.2 C 52 % 12.8 C
460 01-06-2017 14:15:00 23.2 C 53 % 13.09 C
461 01-06-2017 14:20:00 23.4 C 50 % 12.39 C
462 01-06-2017 14:25:00 23.8 C 50 % 12.76 C
463 01-06-2017 14:30:00 24.2 C 49 % 12.81 C
464 01-06-2017 14:35:00 24.5 C 48 % 12.77 C
465 01-06-2017 14:40:00 24.7 C 49 % 13.27 C
466 01-06-2017 14:45:00 24.7 C 45 % 11.97 C
467 01-06-2017 14:50:00 24.8 C 45 % 12.06 C
468 01-06-2017 14:55:00 24.9 C 47 % 12.82 C
469 01-06-2017 15:00:00 25.2 C 45 % 12.43 C
470 01-06-2017 15:05:00 25.4 C 47 % 13.27 C
471 01-06-2017 15:10:00 25.7 C 45 % 12.88 C
472 01-06-2017 15:15:00 25.9 C 43 % 12.37 C
473 01-06-2017 15:20:00 26.1 C 46 % 13.58 C
474 01-06-2017 15:25:00 26.2 C 43 % 12.64 C
475 01-06-2017 15:30:00 26.4 C 42 % 12.46 C
Sensor: Nr:Datum:Temp:Feuchte:Taupunkt:
Aussen-T/F 476 01-06-2017 15:35:00 26.6 C 43 % 13 C
477 01-06-2017 15:40:00 26.8 C 42 % 12.82 C
478 01-06-2017 15:45:00 26.8 C 42 % 12.82 C
479 01-06-2017 15:50:00 27.2 C 40 % 12.43 C
480 01-06-2017 15:55:00 27.7 C 39 % 12.49 C
481 01-06-2017 16:00:00 27.8 C 39 % 12.58 C
482 01-06-2017 16:05:00 28 C 38 % 12.36 C
483 01-06-2017 16:10:00 28.2 C 37 % 12.13 C
484 01-06-2017 16:15:00 27.9 C 39 % 12.67 C
485 01-06-2017 16:20:00 27.6 C 38 % 12.01 C
486 01-06-2017 16:25:00 27.7 C 39 % 12.49 C
487 01-06-2017 16:30:00 27.9 C 39 % 12.67 C
488 01-06-2017 16:35:00 28.1 C 39 % 12.85 C
489 01-06-2017 16:40:00 28.3 C 39 % 13.02 C
490 01-06-2017 16:45:00 28.7 C 36 % 12.16 C
491 01-06-2017 16:50:00 28.8 C 37 % 12.66 C
492 01-06-2017 16:55:00 28.8 C 38 % 13.07 C
493 01-06-2017 17:00:00 28.9 C 38 % 13.16 C
494 01-06-2017 17:05:00 29.2 C 39 % 13.82 C
495 01-06-2017 17:10:00 29.4 C 37 % 13.19 C
496 01-06-2017 17:15:00 28.7 C 36 % 12.16 C
497 01-06-2017 17:20:00 28.2 C 39 % 12.93 C
498 01-06-2017 17:25:00 27.8 C 39 % 12.58 C
499 01-06-2017 17:30:00 27.6 C 40 % 12.79 C
500 01-06-2017 17:35:00 27.7 C 39 % 12.49 C
Sensor: Nr:Datum:Temp:Feuchte:Taupunkt:
Aussen-T/F 501 01-06-2017 17:40:00 27.7 C 39 % 12.49 C
502 01-06-2017 17:45:00 27.8 C 39 % 12.58 C
503 01-06-2017 17:50:00 27.5 C 42 % 13.44 C
504 01-06-2017 17:55:00 27.3 C 44 % 13.98 C
505 01-06-2017 18:00:00 27.3 C 44 % 13.98 C
506 01-06-2017 18:05:00 27.3 C 47 % 15 C
507 01-06-2017 18:10:00 27.4 C 52 % 16.67 C
508 01-06-2017 18:15:00 27.5 C 54 % 17.36 C
509 01-06-2017 18:20:00 27.6 C 51 % 16.55 C
510 01-06-2017 18:25:00 27.8 C 53 % 17.34 C
511 01-06-2017 18:30:00 27.7 C 52 % 16.95 C
512 01-06-2017 18:35:00 27.4 C 52 % 16.67 C
513 01-06-2017 18:40:00 27 C 53 % 16.6 C
514 01-06-2017 18:45:00 26.5 C 53 % 16.14 C
515 01-06-2017 18:50:00 25.9 C 54 % 15.88 C
516 01-06-2017 18:55:00 25.4 C 56 % 15.99 C
517 01-06-2017 19:00:00 25.2 C 57 % 16.08 C
518 01-06-2017 19:05:00 25.1 C 57 % 15.98 C
519 01-06-2017 19:10:00 24.9 C 58 % 16.07 C
520 01-06-2017 19:15:00 24.8 C 57 % 15.7 C
521 01-06-2017 19:20:00 24.6 C 57 % 15.52 C
522 01-06-2017 19:25:00 24.2 C 58 % 15.42 C
523 01-06-2017 19:30:00 23.9 C 59 % 15.4 C
524 01-06-2017 19:35:00 23.6 C 60 % 15.38 C
525 01-06-2017 19:40:00 23.3 C 61 % 15.36 C
Sensor: Nr:Datum:Temp:Feuchte:Taupunkt:
Aussen-T/F 526 01-06-2017 19:45:00 23.2 C 61 % 15.26 C
527 01-06-2017 19:50:00 23 C 62 % 15.33 C
528 01-06-2017 19:55:00 22.8 C 62 % 15.14 C
529 01-06-2017 20:00:00 22.7 C 62 % 15.05 C
530 01-06-2017 20:05:00 22.6 C 62 % 14.95 C
531 01-06-2017 20:10:00 22.4 C 63 % 15.01 C
532 01-06-2017 20:15:00 22.3 C 63 % 14.92 C
533 01-06-2017 20:20:00 22.3 C 63 % 14.92 C
534 01-06-2017 20:25:00 22.2 C 63 % 14.82 C
535 01-06-2017 20:30:00 22.1 C 63 % 14.73 C
536 01-06-2017 20:35:00 22.1 C 63 % 14.73 C
537 01-06-2017 20:40:00 22.1 C 63 % 14.73 C
538 01-06-2017 20:45:00 22 C 63 % 14.63 C
539 01-06-2017 20:50:00 21.9 C 63 % 14.54 C
540 01-06-2017 20:55:00 21.9 C 63 % 14.54 C
541 01-06-2017 21:00:00 21.9 C 63 % 14.54 C
542 01-06-2017 21:05:00 21.9 C 62 % 14.29 C
543 01-06-2017 21:10:00 21.8 C 62 % 14.2 C
544 01-06-2017 21:15:00 21.6 C 63 % 14.26 C
545 01-06-2017 21:20:00 21.4 C 63 % 14.07 C
546 01-06-2017 21:25:00 21.2 C 63 % 13.88 C
547 01-06-2017 21:30:00 21.1 C 64 % 14.03 C
548 01-06-2017 21:35:00 20.8 C 64 % 13.74 C
549 01-06-2017 21:40:00 20.7 C 64 % 13.65 C
550 01-06-2017 21:45:00 20.6 C 64 % 13.55 C
Sensor: Nr:Datum:Temp:Feuchte:Taupunkt:
Aussen-T/F 551 01-06-2017 21:50:00 20.4 C 65 % 13.6 C
552 01-06-2017 21:55:00 20.3 C 65 % 13.51 C
553 01-06-2017 22:00:00 20.2 C 65 % 13.41 C
554 01-06-2017 22:05:00 20.1 C 65 % 13.32 C
555 01-06-2017 22:10:00 20 C 66 % 13.46 C
556 01-06-2017 22:15:00 19.9 C 67 % 13.59 C
557 01-06-2017 22:20:00 19.8 C 67 % 13.5 C
558 01-06-2017 22:25:00 19.7 C 67 % 13.4 C
559 01-06-2017 22:30:00 19.5 C 68 % 13.44 C
560 01-06-2017 22:35:00 19.4 C 68 % 13.34 C
561 01-06-2017 22:40:00 19.3 C 69 % 13.47 C
562 01-06-2017 22:45:00 19.1 C 70 % 13.5 C
563 01-06-2017 22:50:00 18.8 C 70 % 13.22 C
564 01-06-2017 22:55:00 18.6 C 71 % 13.24 C
565 01-06-2017 23:00:00 18.4 C 72 % 13.26 C
566 01-06-2017 23:05:00 18.2 C 73 % 13.28 C
567 01-06-2017 23:10:00 18.1 C 74 % 13.4 C
568 01-06-2017 23:15:00 17.9 C 75 % 13.41 C
569 01-06-2017 23:20:00 17.7 C 75 % 13.22 C
570 01-06-2017 23:25:00 17.6 C 76 % 13.32 C
571 01-06-2017 23:30:00 17.3 C 77 % 13.23 C
572 01-06-2017 23:35:00 17.2 C 77 % 13.14 C
573 01-06-2017 23:40:00 17.2 C 78 % 13.33 C
574 01-06-2017 23:45:00 17.1 C 79 % 13.43 C
575 01-06-2017 23:50:00 16.9 C 79 % 13.24 C
Sensor: Nr:Datum:Temp:Feuchte:Taupunkt:
Aussen-T/F 576 01-06-2017 23:55:00 16.7 C 80 % 13.23 C
577 02-06-2017 00:00:00 16.7 C 80 % 13.23 C
578 02-06-2017 00:05:00 16.7 C 80 % 13.23 C
579 02-06-2017 00:10:00 16.6 C 80 % 13.14 C
580 02-06-2017 00:15:00 16.6 C 80 % 13.14 C
581 02-06-2017 00:20:00 16.4 C 81 % 13.13 C
582 02-06-2017 00:25:00 16.3 C 81 % 13.04 C
583 02-06-2017 00:30:00 16.2 C 82 % 13.13 C
584 02-06-2017 00:35:00 16.1 C 82 % 13.03 C
585 02-06-2017 00:40:00 16 C 83 % 13.12 C
586 02-06-2017 00:45:00 15.9 C 83 % 13.02 C
587 02-06-2017 00:50:00 15.8 C 83 % 12.92 C
588 02-06-2017 00:55:00 15.8 C 84 % 13.1 C
589 02-06-2017 01:00:00 15.7 C 84 % 13.01 C
590 02-06-2017 01:05:00 15.6 C 85 % 13.09 C
591 02-06-2017 01:10:00 15.6 C 85 % 13.09 C
592 02-06-2017 01:15:00 15.6 C 85 % 13.09 C
593 02-06-2017 01:20:00 15.5 C 85 % 12.99 C
594 02-06-2017 01:25:00 15.4 C 85 % 12.89 C
595 02-06-2017 01:30:00 15.3 C 85 % 12.79 C
596 02-06-2017 01:35:00 15.3 C 86 % 12.97 C
597 02-06-2017 01:40:00 15.2 C 86 % 12.88 C
598 02-06-2017 01:45:00 15.2 C 86 % 12.88 C
599 02-06-2017 01:50:00 15.1 C 86 % 12.78 C
600 02-06-2017 01:55:00 15.1 C 86 % 12.78 C
Sensor: Nr:Datum:Temp:Feuchte:Taupunkt:
Aussen-T/F 601 02-06-2017 02:00:00 15 C 87 % 12.86 C
602 02-06-2017 02:05:00 14.9 C 87 % 12.76 C
603 02-06-2017 02:10:00 14.9 C 87 % 12.76 C
604 02-06-2017 02:15:00 14.8 C 87 % 12.66 C
605 02-06-2017 02:20:00 14.8 C 88 % 12.83 C
606 02-06-2017 02:25:00 14.8 C 88 % 12.83 C
607 02-06-2017 02:30:00 14.8 C 87 % 12.66 C
608 02-06-2017 02:35:00 14.7 C 88 % 12.73 C
609 02-06-2017 02:40:00 14.7 C 88 % 12.73 C
610 02-06-2017 02:45:00 14.7 C 88 % 12.73 C
611 02-06-2017 02:50:00 14.6 C 88 % 12.64 C
612 02-06-2017 02:55:00 14.5 C 88 % 12.54 C
613 02-06-2017 03:00:00 14.4 C 88 % 12.44 C
614 02-06-2017 03:05:00 14.4 C 88 % 12.44 C
615 02-06-2017 03:10:00 14.4 C 88 % 12.44 C
616 02-06-2017 03:15:00 14.3 C 88 % 12.34 C
617 02-06-2017 03:20:00 14.3 C 88 % 12.34 C
618 02-06-2017 03:25:00 14.2 C 88 % 12.24 C
619 02-06-2017 03:30:00 14.2 C 89 % 12.41 C
620 02-06-2017 03:35:00 14.1 C 89 % 12.32 C
621 02-06-2017 03:40:00 14.1 C 90 % 12.49 C
622 02-06-2017 03:45:00 14.1 C 90 % 12.49 C
623 02-06-2017 03:50:00 14.1 C 91 % 12.65 C
624 02-06-2017 03:55:00 14.1 C 90 % 12.49 C
625 02-06-2017 04:00:00 13.9 C 90 % 12.29 C
Sensor: Nr:Datum:Temp:Feuchte:Taupunkt:
Aussen-T/F 626 02-06-2017 04:05:00 13.9 C 90 % 12.29 C
627 02-06-2017 04:10:00 13.9 C 90 % 12.29 C
628 02-06-2017 04:15:00 13.9 C 90 % 12.29 C
629 02-06-2017 04:20:00 13.8 C 90 % 12.19 C
630 02-06-2017 04:25:00 13.8 C 91 % 12.36 C
631 02-06-2017 04:30:00 13.8 C 91 % 12.36 C
632 02-06-2017 04:35:00 13.9 C 91 % 12.46 C
633 02-06-2017 04:40:00 13.9 C 92 % 12.62 C
634 02-06-2017 04:45:00 14.1 C 92 % 12.82 C
635 02-06-2017 04:50:00 14.2 C 92 % 12.92 C
636 02-06-2017 04:55:00 14.3 C 92 % 13.02 C
637 02-06-2017 05:00:00 14.5 C 91 % 13.05 C
638 02-06-2017 05:05:00 14.7 C 91 % 13.25 C
639 02-06-2017 05:10:00 14.8 C 90 % 13.18 C
640 02-06-2017 05:15:00 14.9 C 90 % 13.28 C
641 02-06-2017 05:20:00 15 C 90 % 13.37 C
642 02-06-2017 05:25:00 15.1 C 90 % 13.47 C
643 02-06-2017 05:30:00 15.1 C 90 % 13.47 C
644 02-06-2017 05:35:00 15.1 C 90 % 13.47 C
645 02-06-2017 05:40:00 15.1 C 90 % 13.47 C
646 02-06-2017 05:45:00 15.1 C 90 % 13.47 C
647 02-06-2017 05:50:00 15.1 C 90 % 13.47 C
648 02-06-2017 05:55:00 15.1 C 90 % 13.47 C
649 02-06-2017 06:00:00 15.1 C 90 % 13.47 C
650 02-06-2017 06:05:00 15.1 C 90 % 13.47 C
Sensor: Nr:Datum:Temp:Feuchte:Taupunkt:
Aussen-T/F 651 02-06-2017 06:10:00 15.2 C 90 % 13.57 C
652 02-06-2017 06:15:00 15.2 C 90 % 13.57 C
653 02-06-2017 06:20:00 15.2 C 90 % 13.57 C
654 02-06-2017 06:25:00 15.2 C 89 % 13.4 C
655 02-06-2017 06:30:00 15.1 C 89 % 13.3 C
656 02-06-2017 06:35:00 15 C 89 % 13.2 C
657 02-06-2017 06:40:00 14.9 C 89 % 13.1 C
658 02-06-2017 06:45:00 14.8 C 89 % 13.01 C
659 02-06-2017 06:50:00 14.8 C 90 % 13.18 C
660 02-06-2017 06:55:00 14.8 C 90 % 13.18 C
661 02-06-2017 07:00:00 14.8 C 91 % 13.35 C
662 02-06-2017 07:05:00 14.8 C 91 % 13.35 C
663 02-06-2017 07:10:00 14.8 C 91 % 13.35 C
664 02-06-2017 07:15:00 14.8 C 91 % 13.35 C
665 02-06-2017 07:20:00 14.9 C 91 % 13.44 C
666 02-06-2017 07:25:00 15 C 92 % 13.71 C
667 02-06-2017 07:30:00 15.1 C 92 % 13.81 C
668 02-06-2017 07:35:00 15.2 C 92 % 13.91 C
669 02-06-2017 07:40:00 15.3 C 92 % 14.01 C
670 02-06-2017 07:45:00 15.4 C 91 % 13.94 C
671 02-06-2017 07:50:00 15.6 C 90 % 13.97 C
672 02-06-2017 07:55:00 15.8 C 90 % 14.16 C
673 02-06-2017 08:00:00 16 C 90 % 14.36 C
674 02-06-2017 08:05:00 16.2 C 90 % 14.56 C
675 02-06-2017 08:10:00 16.4 C 89 % 14.58 C
Sensor: Nr:Datum:Temp:Feuchte:Taupunkt:
Aussen-T/F 676 02-06-2017 08:15:00 16.5 C 88 % 14.51 C
677 02-06-2017 08:20:00 16.7 C 86 % 14.35 C
678 02-06-2017 08:25:00 17 C 87 % 14.82 C
679 02-06-2017 08:30:00 17.3 C 88 % 15.29 C
680 02-06-2017 08:35:00 17.7 C 87 % 15.51 C
681 02-06-2017 08:40:00 17.9 C 86 % 15.53 C
682 02-06-2017 08:45:00 18.3 C 83 % 15.36 C
683 02-06-2017 08:50:00 18.6 C 82 % 15.47 C
684 02-06-2017 08:55:00 18.8 C 81 % 15.47 C
685 02-06-2017 09:00:00 19.1 C 79 % 15.37 C
686 02-06-2017 09:05:00 19.3 C 78 % 15.37 C
687 02-06-2017 09:10:00 19.4 C 80 % 15.86 C
688 02-06-2017 09:15:00 19.7 C 78 % 15.76 C
689 02-06-2017 09:20:00 19.8 C 78 % 15.85 C
690 02-06-2017 09:25:00 20 C 77 % 15.85 C
691 02-06-2017 09:30:00 20.2 C 80 % 16.64 C
692 02-06-2017 09:35:00 20.4 C 80 % 16.83 C
693 02-06-2017 09:40:00 20.4 C 76 % 16.03 C
694 02-06-2017 09:45:00 20.5 C 75 % 15.92 C
695 02-06-2017 09:50:00 20.6 C 76 % 16.22 C
696 02-06-2017 09:55:00 20.8 C 76 % 16.41 C
697 02-06-2017 10:00:00 20.9 C 78 % 16.92 C
698 02-06-2017 10:05:00 21.1 C 77 % 16.91 C
699 02-06-2017 10:10:00 21.3 C 75 % 16.69 C
700 02-06-2017 10:15:00 21.4 C 74 % 16.57 C
Sensor: Nr:Datum:Temp:Feuchte:Taupunkt:
Aussen-T/F 701 02-06-2017 10:20:00 21.5 C 72 % 16.24 C
702 02-06-2017 10:25:00 21.6 C 73 % 16.55 C
703 02-06-2017 10:30:00 21.7 C 72 % 16.43 C
704 02-06-2017 10:35:00 21.8 C 71 % 16.31 C
705 02-06-2017 10:40:00 22 C 72 % 16.72 C
706 02-06-2017 10:45:00 22.3 C 71 % 16.79 C
707 02-06-2017 10:50:00 22.5 C 70 % 16.76 C
708 02-06-2017 10:55:00 22.6 C 69 % 16.62 C
709 02-06-2017 11:00:00 22.8 C 70 % 17.04 C
710 02-06-2017 11:05:00 22.9 C 70 % 17.14 C
711 02-06-2017 11:10:00 23.1 C 70 % 17.33 C
712 02-06-2017 11:15:00 23.2 C 70 % 17.42 C
713 02-06-2017 11:20:00 23.3 C 69 % 17.29 C
714 02-06-2017 11:25:00 23.3 C 70 % 17.52 C
715 02-06-2017 11:30:00 23.3 C 69 % 17.29 C
716 02-06-2017 11:35:00 23.5 C 73 % 18.38 C
717 02-06-2017 11:40:00 23.7 C 70 % 17.9 C
718 02-06-2017 11:45:00 23.8 C 70 % 18 C
719 02-06-2017 11:50:00 23.9 C 72 % 18.54 C
720 02-06-2017 11:55:00 23.9 C 70 % 18.09 C
721 02-06-2017 12:00:00 23.8 C 68 % 17.54 C
722 02-06-2017 12:05:00 23.9 C 66 % 17.16 C
723 02-06-2017 12:10:00 23.9 C 67 % 17.4 C
724 02-06-2017 12:15:00 24.1 C 66 % 17.35 C
725 02-06-2017 12:20:00 24.2 C 65 % 17.2 C
Sensor: Nr:Datum:Temp:Feuchte:Taupunkt:
Aussen-T/F 726 02-06-2017 12:25:00 24.3 C 65 % 17.3 C
727 02-06-2017 12:30:00 24.5 C 60 % 16.23 C
728 02-06-2017 12:35:00 24.7 C 58 % 15.88 C
729 02-06-2017 12:40:00 24.9 C 58 % 16.07 C
730 02-06-2017 12:45:00 25.2 C 56 % 15.8 C
731 02-06-2017 12:50:00 25.5 C 52 % 14.92 C
732 02-06-2017 12:55:00 25.9 C 52 % 15.29 C
733 02-06-2017 13:00:00 26.3 C 50 % 15.05 C
734 02-06-2017 13:05:00 26.7 C 50 % 15.42 C
735 02-06-2017 13:10:00 26.9 C 48 % 14.96 C
736 02-06-2017 13:15:00 27.2 C 51 % 16.18 C
737 02-06-2017 13:20:00 27.3 C 50 % 15.97 C
738 02-06-2017 13:25:00 27.6 C 56 % 18.03 C
739 02-06-2017 13:30:00 27.7 C 52 % 16.95 C
740 02-06-2017 13:35:00 27.7 C 52 % 16.95 C
741 02-06-2017 13:40:00 27.7 C 52 % 16.95 C
742 02-06-2017 13:45:00 27.7 C 51 % 16.64 C
743 02-06-2017 13:50:00 27.6 C 48 % 15.6 C
744 02-06-2017 13:55:00 27.6 C 57 % 18.31 C
745 02-06-2017 14:00:00 27.4 C 58 % 18.4 C
746 02-06-2017 14:05:00 27.1 C 61 % 18.93 C
747 02-06-2017 14:10:00 26.8 C 62 % 18.91 C
748 02-06-2017 14:15:00 26.4 C 63 % 18.79 C
749 02-06-2017 14:20:00 26 C 62 % 18.15 C
750 02-06-2017 14:25:00 25.5 C 64 % 18.19 C
Sensor: Nr:Datum:Temp:Feuchte:Taupunkt:
Aussen-T/F 751 02-06-2017 14:30:00 25.1 C 64 % 17.81 C
752 02-06-2017 14:35:00 24.6 C 62 % 16.84 C
753 02-06-2017 14:40:00 24.2 C 62 % 16.46 C
754 02-06-2017 14:45:00 23.7 C 69 % 17.67 C
755 02-06-2017 14:50:00 23 C 75 % 18.33 C
756 02-06-2017 14:55:00 22.4 C 79 % 18.58 C
757 02-06-2017 15:00:00 21.8 C 81 % 18.39 C
758 02-06-2017 15:05:00 21.4 C 84 % 18.58 C
759 02-06-2017 15:10:00 21 C 87 % 18.75 C
760 02-06-2017 15:15:00 20.7 C 87 % 18.46 C
761 02-06-2017 15:20:00 20.4 C 89 % 18.53 C
762 02-06-2017 15:25:00 20.4 C 90 % 18.7 C
763 02-06-2017 15:30:00 20.7 C 92 % 19.35 C
764 02-06-2017 15:35:00 20.8 C 92 % 19.45 C
765 02-06-2017 15:40:00 20.9 C 92 % 19.55 C
766 02-06-2017 15:45:00 21 C 92 % 19.65 C
767 02-06-2017 15:50:00 21.2 C 92 % 19.85 C
768 02-06-2017 15:55:00 21.4 C 92 % 20.05 C
769 02-06-2017 16:00:00 21.6 C 93 % 20.42 C
770 02-06-2017 16:05:00 21.7 C 92 % 20.34 C
771 02-06-2017 16:10:00 21.7 C 92 % 20.34 C
772 02-06-2017 16:15:00 21.7 C 92 % 20.34 C
773 02-06-2017 16:20:00 21.7 C 91 % 20.17 C
774 02-06-2017 16:25:00 21.6 C 90 % 19.89 C
775 02-06-2017 16:30:00 21.5 C 90 % 19.79 C
Sensor: Nr:Datum:Temp:Feuchte:Taupunkt:
Aussen-T/F 776 02-06-2017 16:35:00 21.4 C 90 % 19.69 C
777 02-06-2017 16:40:00 21.3 C 91 % 19.77 C
778 02-06-2017 16:45:00 21.2 C 90 % 19.49 C
779 02-06-2017 16:50:00 21.1 C 91 % 19.57 C
780 02-06-2017 16:55:00 20.9 C 91 % 19.37 C
781 02-06-2017 17:00:00 20.8 C 91 % 19.28 C
782 02-06-2017 17:05:00 20.7 C 91 % 19.18 C
783 02-06-2017 17:10:00 20.6 C 90 % 18.9 C
784 02-06-2017 17:15:00 20.5 C 90 % 18.8 C
785 02-06-2017 17:20:00 20.6 C 91 % 19.08 C
786 02-06-2017 17:25:00 20.6 C 92 % 19.25 C
787 02-06-2017 17:30:00 20.7 C 92 % 19.35 C
788 02-06-2017 17:35:00 20.9 C 92 % 19.55 C
789 02-06-2017 17:40:00 20.9 C 92 % 19.55 C
790 02-06-2017 17:45:00 20.8 C 89 % 18.92 C
791 02-06-2017 17:50:00 20.8 C 89 % 18.92 C
792 02-06-2017 17:55:00 20.9 C 91 % 19.37 C
793 02-06-2017 18:00:00 20.8 C 89 % 18.92 C
794 02-06-2017 18:05:00 20.8 C 89 % 18.92 C
795 02-06-2017 18:10:00 20.8 C 88 % 18.74 C
796 02-06-2017 18:15:00 20.9 C 88 % 18.84 C
797 02-06-2017 18:20:00 20.8 C 89 % 18.92 C
798 02-06-2017 18:25:00 20.8 C 88 % 18.74 C
799 02-06-2017 18:30:00 20.7 C 87 % 18.46 C
800 02-06-2017 18:35:00 20.4 C 87 % 18.16 C
Sensor: Nr:Datum:Temp:Feuchte:Taupunkt:
Aussen-T/F 801 02-06-2017 18:40:00 20.2 C 87 % 17.97 C
802 02-06-2017 18:45:00 20 C 87 % 17.77 C
803 02-06-2017 18:50:00 19.8 C 87 % 17.57 C
804 02-06-2017 18:55:00 19.6 C 88 % 17.56 C
805 02-06-2017 19:00:00 19.4 C 89 % 17.54 C
806 02-06-2017 19:05:00 19.3 C 89 % 17.44 C
807 02-06-2017 19:10:00 19.2 C 90 % 17.52 C
808 02-06-2017 19:15:00 19.2 C 90 % 17.52 C
809 02-06-2017 19:20:00 19.2 C 91 % 17.69 C
810 02-06-2017 19:25:00 19.3 C 92 % 17.97 C
811 02-06-2017 19:30:00 19.4 C 92 % 18.07 C
812 02-06-2017 19:35:00 19.6 C 93 % 18.44 C
813 02-06-2017 19:40:00 19.7 C 92 % 18.36 C
814 02-06-2017 19:45:00 19.8 C 92 % 18.46 C
815 02-06-2017 19:50:00 20 C 92 % 18.66 C
816 02-06-2017 19:55:00 20.1 C 92 % 18.76 C
817 02-06-2017 20:00:00 20.2 C 92 % 18.86 C
818 02-06-2017 20:05:00 20.3 C 92 % 18.96 C
819 02-06-2017 20:10:00 20.2 C 91 % 18.68 C
820 02-06-2017 20:15:00 20.2 C 91 % 18.68 C
821 02-06-2017 20:20:00 20.1 C 91 % 18.58 C
822 02-06-2017 20:25:00 20 C 91 % 18.49 C
823 02-06-2017 20:30:00 19.9 C 91 % 18.39 C
824 02-06-2017 20:35:00 19.8 C 91 % 18.29 C
825 02-06-2017 20:40:00 19.8 C 91 % 18.29 C
Sensor: Nr:Datum:Temp:Feuchte:Taupunkt:
Aussen-T/F 826 02-06-2017 20:45:00 19.7 C 91 % 18.19 C
827 02-06-2017 20:50:00 19.6 C 91 % 18.09 C
828 02-06-2017 20:55:00 19.5 C 91 % 17.99 C
829 02-06-2017 21:00:00 19.4 C 91 % 17.89 C
830 02-06-2017 21:05:00 19.3 C 92 % 17.97 C
831 02-06-2017 21:10:00 19.3 C 92 % 17.97 C
832 02-06-2017 21:15:00 19.2 C 92 % 17.87 C
833 02-06-2017 21:20:00 19.2 C 92 % 17.87 C
834 02-06-2017 21:25:00 19.1 C 92 % 17.77 C
835 02-06-2017 21:30:00 19.1 C 92 % 17.77 C
836 02-06-2017 21:35:00 18.9 C 92 % 17.57 C
837 02-06-2017 21:40:00 18.9 C 92 % 17.57 C
838 02-06-2017 21:45:00 18.8 C 92 % 17.47 C
839 02-06-2017 21:50:00 18.7 C 92 % 17.37 C
840 02-06-2017 21:55:00 18.7 C 92 % 17.37 C
841 02-06-2017 22:00:00 18.6 C 92 % 17.27 C
842 02-06-2017 22:05:00 18.5 C 92 % 17.18 C
843 02-06-2017 22:10:00 18.4 C 92 % 17.08 C
844 02-06-2017 22:15:00 18.3 C 92 % 16.98 C
845 02-06-2017 22:20:00 18.3 C 92 % 16.98 C
846 02-06-2017 22:25:00 18.3 C 92 % 16.98 C
847 02-06-2017 22:30:00 18.2 C 92 % 16.88 C
848 02-06-2017 22:35:00 18.1 C 92 % 16.78 C
849 02-06-2017 22:40:00 18 C 92 % 16.68 C
850 02-06-2017 22:45:00 17.9 C 92 % 16.58 C
Sensor: Nr:Datum:Temp:Feuchte:Taupunkt:
Aussen-T/F 851 02-06-2017 22:50:00 17.8 C 92 % 16.48 C
852 02-06-2017 22:55:00 17.8 C 92 % 16.48 C
853 02-06-2017 23:00:00 17.8 C 93 % 16.65 C
854 02-06-2017 23:05:00 17.7 C 93 % 16.55 C
855 02-06-2017 23:10:00 17.7 C 93 % 16.55 C
856 02-06-2017 23:15:00 17.7 C 93 % 16.55 C
857 02-06-2017 23:20:00 17.7 C 93 % 16.55 C
858 02-06-2017 23:25:00 17.7 C 93 % 16.55 C
859 02-06-2017 23:30:00 17.6 C 93 % 16.45 C
860 02-06-2017 23:35:00 17.6 C 93 % 16.45 C
861 02-06-2017 23:40:00 17.4 C 93 % 16.26 C
862 02-06-2017 23:45:00 17.3 C 93 % 16.16 C
863 02-06-2017 23:50:00 17.3 C 93 % 16.16 C
864 02-06-2017 23:55:00 17.3 C 93 % 16.16 C
865 03-06-2017 00:00:00 17.2 C 94 % 16.23 C
866 03-06-2017 00:05:00 17.2 C 94 % 16.23 C
867 03-06-2017 00:10:00 17.2 C 94 % 16.23 C
868 03-06-2017 00:15:00 17.1 C 94 % 16.13 C
869 03-06-2017 00:20:00 16.9 C 94 % 15.93 C
870 03-06-2017 00:25:00 16.9 C 94 % 15.93 C
871 03-06-2017 00:30:00 16.8 C 94 % 15.83 C
872 03-06-2017 00:35:00 16.8 C 94 % 15.83 C
873 03-06-2017 00:40:00 16.7 C 94 % 15.73 C
874 03-06-2017 00:45:00 16.7 C 94 % 15.73 C
875 03-06-2017 00:50:00 16.6 C 94 % 15.63 C
Sensor: Nr:Datum:Temp:Feuchte:Taupunkt:
Aussen-T/F 876 03-06-2017 00:55:00 16.6 C 94 % 15.63 C
877 03-06-2017 01:00:00 16.6 C 94 % 15.63 C
878 03-06-2017 01:05:00 16.6 C 94 % 15.63 C
879 03-06-2017 01:10:00 16.6 C 94 % 15.63 C
880 03-06-2017 01:15:00 16.6 C 95 % 15.8 C
881 03-06-2017 01:20:00 16.5 C 95 % 15.7 C
882 03-06-2017 01:25:00 16.4 C 95 % 15.6 C
883 03-06-2017 01:30:00 16.4 C 95 % 15.6 C
884 03-06-2017 01:35:00 16.3 C 94 % 15.33 C
885 03-06-2017 01:40:00 16.2 C 95 % 15.4 C
886 03-06-2017 01:45:00 16.2 C 95 % 15.4 C
887 03-06-2017 01:50:00 16.2 C 95 % 15.4 C
888 03-06-2017 01:55:00 16.2 C 95 % 15.4 C
889 03-06-2017 02:00:00 16.2 C 95 % 15.4 C
890 03-06-2017 02:05:00 16.2 C 95 % 15.4 C
891 03-06-2017 02:10:00 16.2 C 95 % 15.4 C
892 03-06-2017 02:15:00 16.1 C 95 % 15.3 C
893 03-06-2017 02:20:00 16.1 C 95 % 15.3 C
894 03-06-2017 02:25:00 16 C 95 % 15.2 C
895 03-06-2017 02:30:00 16.1 C 96 % 15.46 C
896 03-06-2017 02:35:00 16.2 C 95 % 15.4 C
897 03-06-2017 02:40:00 16.1 C 95 % 15.3 C
898 03-06-2017 02:45:00 16 C 95 % 15.2 C
899 03-06-2017 02:50:00 15.9 C 95 % 15.1 C
900 03-06-2017 02:55:00 15.9 C 95 % 15.1 C
Sensor: Nr:Datum:Temp:Feuchte:Taupunkt:
Aussen-T/F 901 03-06-2017 03:00:00 15.8 C 95 % 15 C
902 03-06-2017 03:05:00 15.9 C 96 % 15.26 C
903 03-06-2017 03:10:00 15.9 C 96 % 15.26 C
904 03-06-2017 03:15:00 16 C 96 % 15.36 C
905 03-06-2017 03:20:00 16.1 C 96 % 15.46 C
906 03-06-2017 03:25:00 16.3 C 96 % 15.66 C
907 03-06-2017 03:30:00 16.5 C 96 % 15.86 C
908 03-06-2017 03:35:00 16.6 C 96 % 15.96 C
909 03-06-2017 03:40:00 16.7 C 96 % 16.06 C
910 03-06-2017 03:45:00 16.6 C 96 % 15.96 C
911 03-06-2017 03:50:00 16.6 C 96 % 15.96 C
912 03-06-2017 03:55:00 16.6 C 96 % 15.96 C
913 03-06-2017 04:00:00 16.5 C 96 % 15.86 C
914 03-06-2017 04:05:00 16.4 C 96 % 15.76 C
915 03-06-2017 04:10:00 16.3 C 96 % 15.66 C
916 03-06-2017 04:15:00 16.3 C 96 % 15.66 C
917 03-06-2017 04:20:00 16.2 C 96 % 15.56 C
918 03-06-2017 04:25:00 16.1 C 95 % 15.3 C
919 03-06-2017 04:30:00 16.1 C 96 % 15.46 C
920 03-06-2017 04:35:00 16 C 96 % 15.36 C
921 03-06-2017 04:40:00 16.1 C 96 % 15.46 C
922 03-06-2017 04:45:00 16.1 C 96 % 15.46 C
923 03-06-2017 04:50:00 16.1 C 96 % 15.46 C
924 03-06-2017 04:55:00 16.1 C 96 % 15.46 C
925 03-06-2017 05:00:00 16.2 C 96 % 15.56 C
Sensor: Nr:Datum:Temp:Feuchte:Taupunkt:
Aussen-T/F 926 03-06-2017 05:05:00 16.2 C 96 % 15.56 C
927 03-06-2017 05:10:00 16.3 C 96 % 15.66 C
928 03-06-2017 05:15:00 16.4 C 96 % 15.76 C
929 03-06-2017 05:20:00 16.4 C 96 % 15.76 C
930 03-06-2017 05:25:00 16.5 C 96 % 15.86 C
931 03-06-2017 05:30:00 16.5 C 96 % 15.86 C
932 03-06-2017 05:35:00 16.4 C 96 % 15.76 C
933 03-06-2017 05:40:00 16.4 C 96 % 15.76 C
934 03-06-2017 05:45:00 16.3 C 96 % 15.66 C
935 03-06-2017 05:50:00 16.3 C 96 % 15.66 C
936 03-06-2017 05:55:00 16.3 C 96 % 15.66 C
937 03-06-2017 06:00:00 16.3 C 96 % 15.66 C
938 03-06-2017 06:05:00 16.3 C 96 % 15.66 C
939 03-06-2017 06:10:00 16.3 C 96 % 15.66 C
940 03-06-2017 06:15:00 16.4 C 96 % 15.76 C
941 03-06-2017 06:20:00 16.4 C 96 % 15.76 C
942 03-06-2017 06:25:00 16.4 C 96 % 15.76 C
943 03-06-2017 06:30:00 16.4 C 96 % 15.76 C
944 03-06-2017 06:35:00 16.5 C 96 % 15.86 C
945 03-06-2017 06:40:00 16.6 C 97 % 16.12 C
946 03-06-2017 06:45:00 16.7 C 97 % 16.22 C
947 03-06-2017 06:50:00 16.7 C 97 % 16.22 C
948 03-06-2017 06:55:00 16.8 C 97 % 16.32 C
949 03-06-2017 07:00:00 16.9 C 97 % 16.42 C
950 03-06-2017 07:05:00 17.1 C 97 % 16.62 C
Sensor: Nr:Datum:Temp:Feuchte:Taupunkt:
Aussen-T/F 951 03-06-2017 07:10:00 17.2 C 97 % 16.72 C
952 03-06-2017 07:15:00 17.2 C 97 % 16.72 C
953 03-06-2017 07:20:00 17.3 C 96 % 16.66 C
954 03-06-2017 07:25:00 17.3 C 97 % 16.82 C
955 03-06-2017 07:30:00 17.4 C 97 % 16.92 C
956 03-06-2017 07:35:00 17.5 C 96 % 16.85 C
957 03-06-2017 07:40:00 17.5 C 96 % 16.85 C
958 03-06-2017 07:45:00 17.4 C 96 % 16.76 C
959 03-06-2017 07:50:00 17.4 C 96 % 16.76 C
960 03-06-2017 07:55:00 17.5 C 96 % 16.85 C
961 03-06-2017 08:00:00 17.6 C 96 % 16.95 C
962 03-06-2017 08:05:00 17.6 C 96 % 16.95 C
963 03-06-2017 08:10:00 17.6 C 96 % 16.95 C
964 03-06-2017 08:15:00 17.7 C 96 % 17.05 C
965 03-06-2017 08:20:00 17.7 C 96 % 17.05 C
966 03-06-2017 08:25:00 17.7 C 96 % 17.05 C
967 03-06-2017 08:30:00 17.7 C 96 % 17.05 C
968 03-06-2017 08:35:00 17.8 C 96 % 17.15 C
969 03-06-2017 08:40:00 17.8 C 95 % 16.99 C
970 03-06-2017 08:45:00 17.9 C 95 % 17.09 C
971 03-06-2017 08:50:00 18 C 95 % 17.19 C
972 03-06-2017 08:55:00 18.1 C 95 % 17.29 C
973 03-06-2017 09:00:00 18.1 C 95 % 17.29 C
974 03-06-2017 09:05:00 18.2 C 95 % 17.39 C
975 03-06-2017 09:10:00 18.3 C 95 % 17.48 C
Sensor: Nr:Datum:Temp:Feuchte:Taupunkt:
Aussen-T/F 976 03-06-2017 09:15:00 18.3 C 95 % 17.48 C
977 03-06-2017 09:20:00 18.4 C 94 % 17.42 C
978 03-06-2017 09:25:00 18.4 C 94 % 17.42 C
979 03-06-2017 09:30:00 18.6 C 94 % 17.62 C
980 03-06-2017 09:35:00 18.7 C 94 % 17.71 C
981 03-06-2017 09:40:00 18.7 C 94 % 17.71 C
982 03-06-2017 09:45:00 18.8 C 94 % 17.81 C
983 03-06-2017 09:50:00 18.9 C 94 % 17.91 C
984 03-06-2017 09:55:00 19 C 93 % 17.84 C
985 03-06-2017 10:00:00 19.1 C 93 % 17.94 C
986 03-06-2017 10:05:00 19.2 C 93 % 18.04 C
987 03-06-2017 10:10:00 19.2 C 93 % 18.04 C
988 03-06-2017 10:15:00 19.3 C 93 % 18.14 C
989 03-06-2017 10:20:00 19.4 C 93 % 18.24 C
990 03-06-2017 10:25:00 19.5 C 93 % 18.34 C
991 03-06-2017 10:30:00 19.6 C 93 % 18.44 C
992 03-06-2017 10:35:00 19.6 C 93 % 18.44 C
993 03-06-2017 10:40:00 19.7 C 93 % 18.54 C
994 03-06-2017 10:45:00 19.8 C 93 % 18.63 C
995 03-06-2017 10:50:00 20 C 93 % 18.83 C
996 03-06-2017 10:55:00 20.1 C 93 % 18.93 C
997 03-06-2017 11:00:00 20.2 C 92 % 18.86 C
998 03-06-2017 11:05:00 20.3 C 92 % 18.96 C
999 03-06-2017 11:10:00 20.5 C 92 % 19.15 C
1000 03-06-2017 11:15:00 20.7 C 92 % 19.35 C
Sensor: Nr:Datum:Temp:Feuchte:Taupunkt:
Aussen-T/F 1001 03-06-2017 11:20:00 20.8 C 91 % 19.28 C
1002 03-06-2017 11:25:00 20.9 C 90 % 19.2 C
1003 03-06-2017 11:30:00 21 C 89 % 19.12 C
1004 03-06-2017 11:35:00 21.1 C 88 % 19.03 C
1005 03-06-2017 11:40:00 21.2 C 88 % 19.13 C
1006 03-06-2017 11:45:00 21.3 C 88 % 19.23 C
1007 03-06-2017 11:50:00 21.5 C 88 % 19.43 C
1008 03-06-2017 11:55:00 21.7 C 89 % 19.81 C
1009 03-06-2017 12:00:00 21.7 C 87 % 19.44 C
1010 03-06-2017 12:05:00 21.9 C 88 % 19.82 C
1011 03-06-2017 12:10:00 22.1 C 85 % 19.46 C
1012 03-06-2017 12:15:00 22.2 C 83 % 19.17 C
1013 03-06-2017 12:20:00 22.4 C 81 % 18.98 C
1014 03-06-2017 12:25:00 22.7 C 82 % 19.47 C
1015 03-06-2017 12:30:00 22.8 C 82 % 19.56 C
1016 03-06-2017 12:35:00 23 C 82 % 19.76 C
1017 03-06-2017 12:40:00 23.2 C 81 % 19.76 C
1018 03-06-2017 12:45:00 23.3 C 80 % 19.65 C
1019 03-06-2017 12:50:00 23.5 C 78 % 19.44 C
1020 03-06-2017 12:55:00 23.7 C 77 % 19.43 C
1021 03-06-2017 13:00:00 23.9 C 75 % 19.2 C
1022 03-06-2017 13:05:00 24.1 C 75 % 19.39 C
1023 03-06-2017 13:10:00 24.3 C 76 % 19.8 C
1024 03-06-2017 13:15:00 24.2 C 73 % 19.05 C
1025 03-06-2017 13:20:00 23.9 C 72 % 18.54 C
Sensor: Nr:Datum:Temp:Feuchte:Taupunkt:
Aussen-T/F 1026 03-06-2017 13:25:00 21.9 C 72 % 16.62 C
1027 03-06-2017 13:30:00 19.4 C 80 % 15.86 C
1028 03-06-2017 13:35:00 18.4 C 86 % 16.02 C
1029 03-06-2017 13:40:00 18.2 C 89 % 16.36 C
1030 03-06-2017 13:45:00 18.3 C 92 % 16.98 C
1031 03-06-2017 13:50:00 18.5 C 93 % 17.35 C
1032 03-06-2017 13:55:00 18.6 C 93 % 17.45 C
1033 03-06-2017 14:00:00 18.7 C 93 % 17.54 C
1034 03-06-2017 14:05:00 18.8 C 93 % 17.64 C
1035 03-06-2017 14:10:00 19.1 C 94 % 18.11 C
1036 03-06-2017 14:15:00 19.2 C 94 % 18.21 C
1037 03-06-2017 14:20:00 19.2 C 93 % 18.04 C
1038 03-06-2017 14:25:00 19.2 C 94 % 18.21 C
1039 03-06-2017 14:30:00 19.1 C 94 % 18.11 C
1040 03-06-2017 14:35:00 19 C 94 % 18.01 C
1041 03-06-2017 14:40:00 18.9 C 94 % 17.91 C
1042 03-06-2017 14:45:00 19.2 C 95 % 18.38 C
1043 03-06-2017 14:50:00 19.5 C 95 % 18.68 C
1044 03-06-2017 14:55:00 19.9 C 96 % 19.24 C
1045 03-06-2017 15:00:00 20.6 C 97 % 20.11 C
1046 03-06-2017 15:05:00 20.6 C 96 % 19.94 C
1047 03-06-2017 15:10:00 20.6 C 95 % 19.77 C
1048 03-06-2017 15:15:00 20.6 C 95 % 19.77 C
1049 03-06-2017 15:20:00 20.7 C 95 % 19.87 C
1050 03-06-2017 15:25:00 20.8 C 94 % 19.8 C
Sensor: Nr:Datum:Temp:Feuchte:Taupunkt:
Aussen-T/F 1051 03-06-2017 15:30:00 20.9 C 95 % 20.07 C
1052 03-06-2017 15:35:00 21.2 C 95 % 20.37 C
1053 03-06-2017 15:40:00 21.7 C 96 % 21.03 C
1054 03-06-2017 15:45:00 21.8 C 95 % 20.96 C
1055 03-06-2017 15:50:00 21.8 C 95 % 20.96 C
1056 03-06-2017 15:55:00 22.1 C 95 % 21.26 C
1057 03-06-2017 16:00:00 22.1 C 95 % 21.26 C
1058 03-06-2017 16:05:00 22.1 C 94 % 21.09 C
1059 03-06-2017 16:10:00 21.9 C 94 % 20.89 C
1060 03-06-2017 16:15:00 21.7 C 93 % 20.52 C
1061 03-06-2017 16:20:00 21.6 C 93 % 20.42 C
1062 03-06-2017 16:25:00 21.6 C 94 % 20.59 C
1063 03-06-2017 16:30:00 21.7 C 94 % 20.69 C
1064 03-06-2017 16:35:00 21.7 C 94 % 20.69 C
1065 03-06-2017 16:40:00 21.7 C 94 % 20.69 C
1066 03-06-2017 16:45:00 21.8 C 94 % 20.79 C
1067 03-06-2017 16:50:00 22.1 C 94 % 21.09 C
1068 03-06-2017 16:55:00 22.2 C 94 % 21.19 C
1069 03-06-2017 17:00:00 22.3 C 94 % 21.29 C
1070 03-06-2017 17:05:00 22.3 C 94 % 21.29 C
1071 03-06-2017 17:10:00 22.2 C 94 % 21.19 C
1072 03-06-2017 17:15:00 22.2 C 94 % 21.19 C
1073 03-06-2017 17:20:00 22.2 C 94 % 21.19 C
1074 03-06-2017 17:25:00 22.2 C 94 % 21.19 C
1075 03-06-2017 17:30:00 22.3 C 94 % 21.29 C
Sensor: Nr:Datum:Temp:Feuchte:Taupunkt:
Aussen-T/F 1076 03-06-2017 17:35:00 22.4 C 94 % 21.39 C
1077 03-06-2017 17:40:00 22.4 C 94 % 21.39 C
1078 03-06-2017 17:45:00 22.4 C 94 % 21.39 C
1079 03-06-2017 17:50:00 22.5 C 94 % 21.48 C
1080 03-06-2017 17:55:00 22.6 C 93 % 21.41 C
1081 03-06-2017 18:00:00 22.7 C 94 % 21.68 C
1082 03-06-2017 18:05:00 22.7 C 93 % 21.51 C
1083 03-06-2017 18:10:00 22.6 C 92 % 21.23 C
1084 03-06-2017 18:15:00 22.6 C 92 % 21.23 C
1085 03-06-2017 18:20:00 22.5 C 92 % 21.13 C
1086 03-06-2017 18:25:00 22.5 C 92 % 21.13 C
1087 03-06-2017 18:30:00 22.5 C 92 % 21.13 C
1088 03-06-2017 18:35:00 22.4 C 92 % 21.03 C
1089 03-06-2017 18:40:00 22.4 C 92 % 21.03 C
1090 03-06-2017 18:45:00 22.2 C 91 % 20.66 C
1091 03-06-2017 18:50:00 22.1 C 91 % 20.56 C
1092 03-06-2017 18:55:00 21.9 C 91 % 20.36 C
1093 03-06-2017 19:00:00 21.8 C 91 % 20.26 C
1094 03-06-2017 19:05:00 21.7 C 91 % 20.17 C
1095 03-06-2017 19:10:00 21.5 C 92 % 20.14 C
1096 03-06-2017 19:15:00 21.3 C 92 % 19.95 C
1097 03-06-2017 19:20:00 21.2 C 92 % 19.85 C
1098 03-06-2017 19:25:00 21.2 C 93 % 20.02 C
1099 03-06-2017 19:30:00 21.1 C 93 % 19.92 C
1100 03-06-2017 19:35:00 20.9 C 93 % 19.72 C
Sensor: Nr:Datum:Temp:Feuchte:Taupunkt:
Aussen-T/F 1101 03-06-2017 19:40:00 20.9 C 93 % 19.72 C
1102 03-06-2017 19:45:00 20.8 C 93 % 19.63 C
1103 03-06-2017 19:50:00 20.7 C 93 % 19.53 C
1104 03-06-2017 19:55:00 20.6 C 93 % 19.43 C
1105 03-06-2017 20:00:00 20.4 C 93 % 19.23 C
1106 03-06-2017 20:05:00 20.3 C 93 % 19.13 C
1107 03-06-2017 20:10:00 20.2 C 93 % 19.03 C
1108 03-06-2017 20:15:00 19.9 C 94 % 18.91 C
1109 03-06-2017 20:20:00 19.8 C 94 % 18.81 C
1110 03-06-2017 20:25:00 19.7 C 94 % 18.71 C
1111 03-06-2017 20:30:00 19.6 C 94 % 18.61 C
1112 03-06-2017 20:35:00 19.4 C 94 % 18.41 C
1113 03-06-2017 20:40:00 19.3 C 94 % 18.31 C
1114 03-06-2017 20:45:00 19.2 C 94 % 18.21 C
1115 03-06-2017 20:50:00 19.1 C 94 % 18.11 C
1116 03-06-2017 20:55:00 19.1 C 94 % 18.11 C
1117 03-06-2017 21:00:00 18.9 C 94 % 17.91 C
1118 03-06-2017 21:05:00 18.9 C 94 % 17.91 C
1119 03-06-2017 21:10:00 18.8 C 94 % 17.81 C
1120 03-06-2017 21:15:00 18.8 C 95 % 17.98 C
1121 03-06-2017 21:20:00 18.7 C 95 % 17.88 C
1122 03-06-2017 21:25:00 18.6 C 95 % 17.78 C
1123 03-06-2017 21:30:00 18.6 C 95 % 17.78 C
1124 03-06-2017 21:35:00 18.5 C 95 % 17.68 C
1125 03-06-2017 21:40:00 18.4 C 95 % 17.58 C
Sensor: Nr:Datum:Temp:Feuchte:Taupunkt:
Aussen-T/F 1126 03-06-2017 21:45:00 18.2 C 95 % 17.39 C
1127 03-06-2017 21:50:00 18.1 C 94 % 17.12 C
1128 03-06-2017 21:55:00 17.9 C 95 % 17.09 C
1129 03-06-2017 22:00:00 17.8 C 95 % 16.99 C
1130 03-06-2017 22:05:00 17.7 C 95 % 16.89 C
1131 03-06-2017 22:10:00 17.6 C 95 % 16.79 C
1132 03-06-2017 22:15:00 17.6 C 95 % 16.79 C
1133 03-06-2017 22:20:00 17.5 C 95 % 16.69 C
1134 03-06-2017 22:25:00 17.4 C 95 % 16.59 C
1135 03-06-2017 22:30:00 17.4 C 95 % 16.59 C
1136 03-06-2017 22:35:00 17.4 C 95 % 16.59 C
1137 03-06-2017 22:40:00 17.3 C 95 % 16.49 C
1138 03-06-2017 22:45:00 17.3 C 95 % 16.49 C
1139 03-06-2017 22:50:00 17.3 C 96 % 16.66 C
1140 03-06-2017 22:55:00 17.3 C 96 % 16.66 C
1141 03-06-2017 23:00:00 17.3 C 96 % 16.66 C
1142 03-06-2017 23:05:00 17.2 C 96 % 16.56 C
1143 03-06-2017 23:10:00 17.2 C 96 % 16.56 C
1144 03-06-2017 23:15:00 17.2 C 96 % 16.56 C
1145 03-06-2017 23:20:00 17.2 C 96 % 16.56 C
1146 03-06-2017 23:25:00 17.1 C 96 % 16.46 C
1147 03-06-2017 23:30:00 17.1 C 96 % 16.46 C
1148 03-06-2017 23:35:00 17.1 C 96 % 16.46 C
1149 03-06-2017 23:40:00 17 C 96 % 16.36 C
1150 03-06-2017 23:45:00 17 C 96 % 16.36 C
Sensor: Nr:Datum:Temp:Feuchte:Taupunkt:
Aussen-T/F 1151 03-06-2017 23:50:00 16.9 C 96 % 16.26 C
1152 03-06-2017 23:55:00 16.9 C 96 % 16.26 C
1153 04-06-2017 00:00:00 16.9 C 96 % 16.26 C
1154 04-06-2017 00:05:00 17 C 96 % 16.36 C
1155 04-06-2017 00:10:00 17 C 96 % 16.36 C
1156 04-06-2017 00:15:00 17 C 96 % 16.36 C
1157 04-06-2017 00:20:00 17 C 96 % 16.36 C
1158 04-06-2017 00:25:00 17.1 C 96 % 16.46 C
1159 04-06-2017 00:30:00 17.1 C 96 % 16.46 C
1160 04-06-2017 00:35:00 17.1 C 96 % 16.46 C
1161 04-06-2017 00:40:00 17 C 96 % 16.36 C
1162 04-06-2017 00:45:00 16.7 C 95 % 15.9 C
1163 04-06-2017 00:50:00 16.5 C 95 % 15.7 C
1164 04-06-2017 00:55:00 16.4 C 96 % 15.76 C
1165 04-06-2017 01:00:00 16.4 C 95 % 15.6 C
1166 04-06-2017 01:05:00 16.4 C 96 % 15.76 C
1167 04-06-2017 01:10:00 16.4 C 96 % 15.76 C
1168 04-06-2017 01:15:00 16.4 C 96 % 15.76 C
1169 04-06-2017 01:20:00 16.4 C 96 % 15.76 C
1170 04-06-2017 01:25:00 16.4 C 96 % 15.76 C
1171 04-06-2017 01:30:00 16.3 C 96 % 15.66 C
1172 04-06-2017 01:35:00 16.3 C 96 % 15.66 C
1173 04-06-2017 01:40:00 16.3 C 96 % 15.66 C
1174 04-06-2017 01:45:00 16.3 C 96 % 15.66 C
1175 04-06-2017 01:50:00 16.3 C 96 % 15.66 C
Sensor: Nr:Datum:Temp:Feuchte:Taupunkt:
Aussen-T/F 1176 04-06-2017 01:55:00 16.3 C 96 % 15.66 C
1177 04-06-2017 02:00:00 16.3 C 96 % 15.66 C
1178 04-06-2017 02:05:00 16.2 C 96 % 15.56 C
1179 04-06-2017 02:10:00 15.9 C 95 % 15.1 C
1180 04-06-2017 02:15:00 15.8 C 95 % 15 C
1181 04-06-2017 02:20:00 15.7 C 95 % 14.9 C
1182 04-06-2017 02:25:00 15.6 C 95 % 14.8 C
1183 04-06-2017 02:30:00 15.5 C 95 % 14.7 C
1184 04-06-2017 02:35:00 15.4 C 95 % 14.6 C
1185 04-06-2017 02:40:00 15.4 C 95 % 14.6 C
1186 04-06-2017 02:45:00 15.4 C 95 % 14.6 C
1187 04-06-2017 02:50:00 15.3 C 95 % 14.5 C
1188 04-06-2017 02:55:00 15.3 C 95 % 14.5 C
1189 04-06-2017 03:00:00 15.1 C 94 % 14.14 C
1190 04-06-2017 03:05:00 14.9 C 94 % 13.94 C
1191 04-06-2017 03:10:00 14.8 C 94 % 13.84 C
1192 04-06-2017 03:15:00 14.7 C 94 % 13.74 C
1193 04-06-2017 03:20:00 14.7 C 94 % 13.74 C
1194 04-06-2017 03:25:00 14.7 C 94 % 13.74 C
1195 04-06-2017 03:30:00 14.7 C 95 % 13.91 C
1196 04-06-2017 03:35:00 14.6 C 95 % 13.81 C
1197 04-06-2017 03:40:00 14.7 C 95 % 13.91 C
1198 04-06-2017 03:45:00 14.7 C 95 % 13.91 C
1199 04-06-2017 03:50:00 14.7 C 95 % 13.91 C
1200 04-06-2017 03:55:00 14.6 C 95 % 13.81 C
Sensor: Nr:Datum:Temp:Feuchte:Taupunkt:
Aussen-T/F 1201 04-06-2017 04:00:00 14.6 C 95 % 13.81 C
1202 04-06-2017 04:05:00 14.6 C 95 % 13.81 C
1203 04-06-2017 04:10:00 14.6 C 95 % 13.81 C
1204 04-06-2017 04:15:00 14.6 C 95 % 13.81 C
1205 04-06-2017 04:20:00 14.6 C 95 % 13.81 C
1206 04-06-2017 04:25:00 14.6 C 95 % 13.81 C
1207 04-06-2017 04:30:00 14.6 C 95 % 13.81 C
1208 04-06-2017 04:35:00 14.6 C 95 % 13.81 C
1209 04-06-2017 04:40:00 14.6 C 95 % 13.81 C
1210 04-06-2017 04:45:00 14.6 C 95 % 13.81 C
1211 04-06-2017 04:50:00 14.5 C 95 % 13.71 C
1212 04-06-2017 04:55:00 14.4 C 95 % 13.61 C
1213 04-06-2017 05:00:00 14.4 C 95 % 13.61 C
1214 04-06-2017 05:05:00 14.3 C 95 % 13.51 C
1215 04-06-2017 05:10:00 14.3 C 96 % 13.67 C
1216 04-06-2017 05:15:00 14.3 C 95 % 13.51 C
1217 04-06-2017 05:20:00 14.3 C 95 % 13.51 C
1218 04-06-2017 05:25:00 14.3 C 95 % 13.51 C
1219 04-06-2017 05:30:00 14.3 C 96 % 13.67 C
1220 04-06-2017 05:35:00 14.3 C 96 % 13.67 C
1221 04-06-2017 05:40:00 14.2 C 96 % 13.57 C
1222 04-06-2017 05:45:00 14.2 C 96 % 13.57 C
1223 04-06-2017 05:50:00 14.1 C 96 % 13.47 C
1224 04-06-2017 05:55:00 14.1 C 96 % 13.47 C
1225 04-06-2017 06:00:00 14 C 96 % 13.37 C
Sensor: Nr:Datum:Temp:Feuchte:Taupunkt:
Aussen-T/F 1226 04-06-2017 06:05:00 14 C 96 % 13.37 C
1227 04-06-2017 06:10:00 13.9 C 96 % 13.27 C
1228 04-06-2017 06:15:00 13.9 C 96 % 13.27 C
1229 04-06-2017 06:20:00 13.8 C 96 % 13.17 C
1230 04-06-2017 06:25:00 13.9 C 96 % 13.27 C
1231 04-06-2017 06:30:00 13.9 C 96 % 13.27 C
1232 04-06-2017 06:35:00 13.9 C 96 % 13.27 C
1233 04-06-2017 06:40:00 13.9 C 96 % 13.27 C
1234 04-06-2017 06:45:00 14 C 96 % 13.37 C
1235 04-06-2017 06:50:00 14.1 C 96 % 13.47 C
1236 04-06-2017 06:55:00 14.1 C 96 % 13.47 C
1237 04-06-2017 07:00:00 14.1 C 96 % 13.47 C
1238 04-06-2017 07:05:00 14.1 C 96 % 13.47 C
1239 04-06-2017 07:10:00 14.2 C 96 % 13.57 C
1240 04-06-2017 07:15:00 14.3 C 96 % 13.67 C
1241 04-06-2017 07:20:00 14.4 C 96 % 13.77 C
1242 04-06-2017 07:25:00 14.4 C 96 % 13.77 C
1243 04-06-2017 07:30:00 14.4 C 96 % 13.77 C
1244 04-06-2017 07:35:00 14.4 C 97 % 13.93 C
1245 04-06-2017 07:40:00 14.5 C 97 % 14.03 C
1246 04-06-2017 07:45:00 14.5 C 97 % 14.03 C
1247 04-06-2017 07:50:00 14.6 C 97 % 14.13 C
1248 04-06-2017 07:55:00 14.6 C 97 % 14.13 C
1249 04-06-2017 08:00:00 14.6 C 97 % 14.13 C
1250 04-06-2017 08:05:00 14.7 C 96 % 14.07 C
Sensor: Nr:Datum:Temp:Feuchte:Taupunkt:
Aussen-T/F 1251 04-06-2017 08:10:00 14.8 C 97 % 14.33 C
1252 04-06-2017 08:15:00 14.8 C 96 % 14.17 C
1253 04-06-2017 08:20:00 14.8 C 96 % 14.17 C
1254 04-06-2017 08:25:00 14.7 C 96 % 14.07 C
1255 04-06-2017 08:30:00 14.7 C 96 % 14.07 C
1256 04-06-2017 08:35:00 14.7 C 96 % 14.07 C
1257 04-06-2017 08:40:00 14.7 C 96 % 14.07 C
1258 04-06-2017 08:45:00 14.7 C 96 % 14.07 C
1259 04-06-2017 08:50:00 14.8 C 96 % 14.17 C
1260 04-06-2017 08:55:00 15 C 97 % 14.53 C
1261 04-06-2017 09:00:00 15.2 C 97 % 14.73 C
1262 04-06-2017 09:05:00 15.1 C 97 % 14.63 C
1263 04-06-2017 09:10:00 15.1 C 96 % 14.47 C
1264 04-06-2017 09:15:00 15.2 C 97 % 14.73 C
1265 04-06-2017 09:20:00 15.1 C 96 % 14.47 C
1266 04-06-2017 09:25:00 15 C 96 % 14.37 C
1267 04-06-2017 09:30:00 14.9 C 95 % 14.11 C
1268 04-06-2017 09:35:00 14.9 C 95 % 14.11 C
1269 04-06-2017 09:40:00 15.1 C 96 % 14.47 C
1270 04-06-2017 09:45:00 15.2 C 95 % 14.4 C
1271 04-06-2017 09:50:00 15.4 C 96 % 14.77 C
1272 04-06-2017 09:55:00 15.4 C 95 % 14.6 C
1273 04-06-2017 10:00:00 15.5 C 95 % 14.7 C
1274 04-06-2017 10:05:00 15.6 C 94 % 14.64 C
1275 04-06-2017 10:10:00 15.7 C 95 % 14.9 C
Sensor: Nr:Datum:Temp:Feuchte:Taupunkt:
Aussen-T/F 1276 04-06-2017 10:15:00 15.9 C 95 % 15.1 C
1277 04-06-2017 10:20:00 16.1 C 94 % 15.13 C
1278 04-06-2017 10:25:00 16.1 C 92 % 14.8 C
1279 04-06-2017 10:30:00 16 C 90 % 14.36 C
1280 04-06-2017 10:35:00 16.1 C 90 % 14.46 C
1281 04-06-2017 10:40:00 16.2 C 90 % 14.56 C
1282 04-06-2017 10:45:00 16.3 C 89 % 14.48 C
1283 04-06-2017 10:50:00 16.4 C 88 % 14.41 C
1284 04-06-2017 10:55:00 16.4 C 87 % 14.23 C
1285 04-06-2017 11:00:00 16.5 C 87 % 14.33 C
1286 04-06-2017 11:05:00 16.6 C 88 % 14.6 C
1287 04-06-2017 11:10:00 16.8 C 90 % 15.15 C
1288 04-06-2017 11:15:00 16.7 C 86 % 14.35 C
1289 04-06-2017 11:20:00 16.9 C 83 % 14 C
1290 04-06-2017 11:25:00 17 C 83 % 14.09 C
1291 04-06-2017 11:30:00 17.2 C 80 % 13.72 C
1292 04-06-2017 11:35:00 17.4 C 82 % 14.3 C
1293 04-06-2017 11:40:00 17.6 C 81 % 14.3 C
1294 04-06-2017 11:45:00 17.6 C 80 % 14.11 C
1295 04-06-2017 11:50:00 17.6 C 81 % 14.3 C
1296 04-06-2017 11:55:00 17.7 C 76 % 13.42 C
1297 04-06-2017 12:00:00 17.8 C 76 % 13.52 C
1298 04-06-2017 12:05:00 18 C 78 % 14.11 C
1299 04-06-2017 12:10:00 18.1 C 82 % 14.98 C
1300 04-06-2017 12:15:00 18.2 C 79 % 14.5 C
Sensor: Nr:Datum:Temp:Feuchte:Taupunkt:
Aussen-T/F 1301 04-06-2017 12:20:00 18.2 C 77 % 14.1 C
1302 04-06-2017 12:25:00 18.2 C 76 % 13.9 C
1303 04-06-2017 12:30:00 18 C 76 % 13.71 C
1304 04-06-2017 12:35:00 17.8 C 77 % 13.72 C
1305 04-06-2017 12:40:00 17.7 C 80 % 14.21 C
1306 04-06-2017 12:45:00 17.5 C 81 % 14.2 C
1307 04-06-2017 12:50:00 17.5 C 83 % 14.58 C
1308 04-06-2017 12:55:00 17.4 C 85 % 14.85 C
1309 04-06-2017 13:00:00 17.4 C 84 % 14.67 C
1310 04-06-2017 13:05:00 17.4 C 76 % 13.13 C
1311 04-06-2017 13:10:00 17.7 C 76 % 13.42 C
1312 04-06-2017 13:15:00 17.9 C 74 % 13.2 C
1313 04-06-2017 13:20:00 18.1 C 73 % 13.19 C
1314 04-06-2017 13:25:00 18.2 C 74 % 13.49 C
1315 04-06-2017 13:30:00 18.2 C 76 % 13.9 C
1316 04-06-2017 13:35:00 18.4 C 81 % 15.08 C
1317 04-06-2017 13:40:00 18.5 C 68 % 12.49 C
1318 04-06-2017 13:45:00 18.7 C 66 % 12.22 C
1319 04-06-2017 13:50:00 18.9 C 69 % 13.09 C
1320 04-06-2017 13:55:00 19.1 C 64 % 12.14 C
1321 04-06-2017 14:00:00 19.1 C 71 % 13.72 C
1322 04-06-2017 14:05:00 18.9 C 64 % 11.95 C
1323 04-06-2017 14:10:00 18.9 C 67 % 12.64 C
1324 04-06-2017 14:15:00 19.1 C 63 % 11.9 C
1325 04-06-2017 14:20:00 19.2 C 61 % 11.5 C
Sensor: Nr:Datum:Temp:Feuchte:Taupunkt:
Aussen-T/F 1326 04-06-2017 14:25:00 19.2 C 62 % 11.75 C
1327 04-06-2017 14:30:00 19.3 C 61 % 11.6 C
1328 04-06-2017 14:35:00 19.3 C 59 % 11.09 C
1329 04-06-2017 14:40:00 19.3 C 59 % 11.09 C
1330 04-06-2017 14:45:00 19.2 C 62 % 11.75 C
1331 04-06-2017 14:50:00 19.4 C 59 % 11.19 C
1332 04-06-2017 14:55:00 19.5 C 59 % 11.28 C
1333 04-06-2017 15:00:00 19.6 C 57 % 10.86 C
1334 04-06-2017 15:05:00 19.6 C 62 % 12.13 C
1335 04-06-2017 15:10:00 19.7 C 73 % 14.73 C
1336 04-06-2017 15:15:00 19.6 C 68 % 13.54 C
1337 04-06-2017 15:20:00 19.7 C 60 % 11.72 C
1338 04-06-2017 15:25:00 19.8 C 67 % 13.5 C
1339 04-06-2017 15:30:00 19.8 C 69 % 13.95 C
1340 04-06-2017 15:35:00 19.8 C 62 % 12.31 C
1341 04-06-2017 15:40:00 19.9 C 60 % 11.91 C
1342 04-06-2017 15:45:00 20.1 C 62 % 12.6 C
1343 04-06-2017 15:50:00 20.3 C 60 % 12.29 C
1344 04-06-2017 15:55:00 20.6 C 69 % 14.71 C
1345 04-06-2017 16:00:00 21.1 C 58 % 12.52 C
1346 04-06-2017 16:05:00 21.2 C 55 % 11.81 C
1347 04-06-2017 16:10:00 21.2 C 56 % 12.08 C
1348 04-06-2017 16:15:00 21.2 C 63 % 13.88 C
1349 04-06-2017 16:20:00 21.7 C 71 % 16.21 C
1350 04-06-2017 16:25:00 22.2 C 59 % 13.81 C
Sensor: Nr:Datum:Temp:Feuchte:Taupunkt:
Aussen-T/F 1351 04-06-2017 16:30:00 22.7 C 57 % 13.75 C
1352 04-06-2017 16:35:00 22.7 C 61 % 14.79 C
1353 04-06-2017 16:40:00 22.3 C 50 % 11.38 C
1354 04-06-2017 16:45:00 21.9 C 62 % 14.29 C
1355 04-06-2017 16:50:00 21.7 C 68 % 15.54 C
1356 04-06-2017 16:55:00 21.7 C 63 % 14.35 C
1357 04-06-2017 17:00:00 22.1 C 58 % 13.45 C
1358 04-06-2017 17:05:00 22.6 C 54 % 12.83 C
1359 04-06-2017 17:10:00 23 C 58 % 14.29 C
1360 04-06-2017 17:15:00 23.3 C 52 % 12.9 C
1361 04-06-2017 17:20:00 23.1 C 55 % 13.57 C
1362 04-06-2017 17:25:00 22.7 C 57 % 13.75 C
1363 04-06-2017 17:30:00 22.6 C 68 % 16.39 C
1364 04-06-2017 17:35:00 22.6 C 65 % 15.69 C
1365 04-06-2017 17:40:00 22.5 C 63 % 15.11 C
1366 04-06-2017 17:45:00 22.3 C 52 % 11.97 C
1367 04-06-2017 17:50:00 22.2 C 50 % 11.29 C
1368 04-06-2017 17:55:00 21.9 C 49 % 10.71 C
1369 04-06-2017 18:00:00 21.4 C 56 % 12.27 C
1370 04-06-2017 18:05:00 20.7 C 61 % 12.91 C
1371 04-06-2017 18:10:00 19.9 C 63 % 12.65 C
1372 04-06-2017 18:15:00 19.4 C 63 % 12.18 C
1373 04-06-2017 18:20:00 19.2 C 65 % 12.47 C
1374 04-06-2017 18:25:00 19.1 C 67 % 12.83 C
1375 04-06-2017 18:30:00 19.2 C 64 % 12.23 C
Sensor: Nr:Datum:Temp:Feuchte:Taupunkt:
Aussen-T/F 1376 04-06-2017 18:35:00 19.2 C 63 % 11.99 C
1377 04-06-2017 18:40:00 19.1 C 63 % 11.9 C
1378 04-06-2017 18:45:00 18.9 C 63 % 11.71 C
1379 04-06-2017 18:50:00 18.7 C 63 % 11.52 C
1380 04-06-2017 18:55:00 18.6 C 64 % 11.66 C
1381 04-06-2017 19:00:00 18.4 C 63 % 11.23 C
1382 04-06-2017 19:05:00 18.2 C 65 % 11.52 C
1383 04-06-2017 19:10:00 18.1 C 65 % 11.42 C
1384 04-06-2017 19:15:00 18.1 C 65 % 11.42 C
1385 04-06-2017 19:20:00 17.9 C 65 % 11.23 C
1386 04-06-2017 19:25:00 17.8 C 67 % 11.6 C
1387 04-06-2017 19:30:00 17.7 C 67 % 11.5 C
1388 04-06-2017 19:35:00 17.7 C 72 % 12.59 C
1389 04-06-2017 19:40:00 17.6 C 76 % 13.32 C
1390 04-06-2017 19:45:00 17.4 C 77 % 13.33 C
1391 04-06-2017 19:50:00 17.2 C 80 % 13.72 C
1392 04-06-2017 19:55:00 16.8 C 82 % 13.71 C
1393 04-06-2017 20:00:00 16.3 C 84 % 13.59 C
1394 04-06-2017 20:05:00 15.9 C 85 % 13.38 C
1395 04-06-2017 20:10:00 15.6 C 86 % 13.27 C
1396 04-06-2017 20:15:00 15.3 C 87 % 13.15 C
1397 04-06-2017 20:20:00 14.9 C 87 % 12.76 C
1398 04-06-2017 20:25:00 14.7 C 88 % 12.73 C
1399 04-06-2017 20:30:00 14.6 C 89 % 12.81 C
1400 04-06-2017 20:35:00 14.4 C 90 % 12.78 C
Sensor: Nr:Datum:Temp:Feuchte:Taupunkt:
Aussen-T/F 1401 04-06-2017 20:40:00 14.3 C 90 % 12.68 C
1402 04-06-2017 20:45:00 14.2 C 91 % 12.75 C
1403 04-06-2017 20:50:00 14.1 C 91 % 12.65 C
1404 04-06-2017 20:55:00 14 C 92 % 12.72 C
1405 04-06-2017 21:00:00 13.9 C 92 % 12.62 C
1406 04-06-2017 21:05:00 13.9 C 92 % 12.62 C
1407 04-06-2017 21:10:00 13.8 C 92 % 12.52 C
1408 04-06-2017 21:15:00 13.8 C 92 % 12.52 C
1409 04-06-2017 21:20:00 13.8 C 93 % 12.69 C
1410 04-06-2017 21:25:00 13.8 C 93 % 12.69 C
1411 04-06-2017 21:30:00 13.7 C 93 % 12.59 C
1412 04-06-2017 21:35:00 13.7 C 93 % 12.59 C
1413 04-06-2017 21:40:00 13.6 C 93 % 12.49 C
1414 04-06-2017 21:45:00 13.6 C 93 % 12.49 C
1415 04-06-2017 21:50:00 13.5 C 93 % 12.39 C
1416 04-06-2017 21:55:00 13.4 C 93 % 12.29 C
1417 04-06-2017 22:00:00 13.3 C 93 % 12.19 C
1418 04-06-2017 22:05:00 13.2 C 93 % 12.09 C
1419 04-06-2017 22:10:00 13.1 C 93 % 11.99 C
1420 04-06-2017 22:15:00 13 C 93 % 11.9 C
1421 04-06-2017 22:20:00 12.9 C 93 % 11.8 C
1422 04-06-2017 22:25:00 12.8 C 93 % 11.7 C
1423 04-06-2017 22:30:00 12.8 C 94 % 11.86 C
1424 04-06-2017 22:35:00 12.8 C 94 % 11.86 C
1425 04-06-2017 22:40:00 12.8 C 94 % 11.86 C
Sensor: Nr:Datum:Temp:Feuchte:Taupunkt:
Aussen-T/F 1426 04-06-2017 22:45:00 12.8 C 94 % 11.86 C
1427 04-06-2017 22:50:00 12.8 C 94 % 11.86 C
1428 04-06-2017 22:55:00 12.8 C 94 % 11.86 C
1429 04-06-2017 23:00:00 12.8 C 94 % 11.86 C
1430 04-06-2017 23:05:00 12.8 C 95 % 12.02 C
1431 04-06-2017 23:10:00 12.8 C 95 % 12.02 C
1432 04-06-2017 23:15:00 12.8 C 95 % 12.02 C
1433 04-06-2017 23:20:00 12.7 C 94 % 11.76 C
1434 04-06-2017 23:25:00 12.6 C 94 % 11.66 C
1435 04-06-2017 23:30:00 12.6 C 94 % 11.66 C
1436 04-06-2017 23:35:00 12.5 C 95 % 11.72 C
1437 04-06-2017 23:40:00 12.4 C 95 % 11.62 C
1438 04-06-2017 23:45:00 12.4 C 94 % 11.46 C
1439 04-06-2017 23:50:00 12.3 C 94 % 11.36 C
1440 04-06-2017 23:55:00 12.3 C 94 % 11.36 C
1441 05-06-2017 00:00:00 12.2 C 95 % 11.42 C
1442 05-06-2017 00:05:00 12.1 C 95 % 11.32 C
1443 05-06-2017 00:10:00 12.1 C 95 % 11.32 C
1444 05-06-2017 00:15:00 12 C 95 % 11.22 C
1445 05-06-2017 00:20:00 11.9 C 95 % 11.13 C
1446 05-06-2017 00:25:00 11.9 C 95 % 11.13 C
1447 05-06-2017 00:30:00 11.8 C 95 % 11.03 C
1448 05-06-2017 00:35:00 11.8 C 95 % 11.03 C
1449 05-06-2017 00:40:00 11.7 C 95 % 10.93 C
1450 05-06-2017 00:45:00 11.7 C 95 % 10.93 C
Sensor: Nr:Datum:Temp:Feuchte:Taupunkt:
Aussen-T/F 1451 05-06-2017 00:50:00 11.7 C 95 % 10.93 C
1452 05-06-2017 00:55:00 11.6 C 95 % 10.83 C
1453 05-06-2017 01:00:00 11.7 C 95 % 10.93 C
1454 05-06-2017 01:05:00 11.7 C 95 % 10.93 C
1455 05-06-2017 01:10:00 11.7 C 95 % 10.93 C
1456 05-06-2017 01:15:00 11.6 C 95 % 10.83 C
1457 05-06-2017 01:20:00 11.6 C 96 % 10.98 C
1458 05-06-2017 01:25:00 11.6 C 96 % 10.98 C
1459 05-06-2017 01:30:00 11.6 C 96 % 10.98 C
1460 05-06-2017 01:35:00 11.6 C 96 % 10.98 C
1461 05-06-2017 01:40:00 11.6 C 96 % 10.98 C
1462 05-06-2017 01:45:00 11.6 C 96 % 10.98 C
1463 05-06-2017 01:50:00 11.6 C 96 % 10.98 C
1464 05-06-2017 01:55:00 11.5 C 96 % 10.88 C
1465 05-06-2017 02:00:00 11.4 C 95 % 10.63 C
1466 05-06-2017 02:05:00 11.4 C 96 % 10.79 C
1467 05-06-2017 02:10:00 11.3 C 96 % 10.69 C
1468 05-06-2017 02:15:00 11.3 C 96 % 10.69 C
1469 05-06-2017 02:20:00 11.3 C 96 % 10.69 C
1470 05-06-2017 02:25:00 11.2 C 96 % 10.59 C
1471 05-06-2017 02:30:00 11.2 C 96 % 10.59 C
1472 05-06-2017 02:35:00 11.2 C 96 % 10.59 C
1473 05-06-2017 02:40:00 11.2 C 96 % 10.59 C
1474 05-06-2017 02:45:00 11.2 C 96 % 10.59 C
1475 05-06-2017 02:50:00 11.2 C 96 % 10.59 C
Sensor: Nr:Datum:Temp:Feuchte:Taupunkt:
Aussen-T/F 1476 05-06-2017 02:55:00 11.2 C 96 % 10.59 C
1477 05-06-2017 03:00:00 11.2 C 96 % 10.59 C
1478 05-06-2017 03:05:00 11.1 C 96 % 10.49 C
1479 05-06-2017 03:10:00 11.1 C 96 % 10.49 C
1480 05-06-2017 03:15:00 11 C 96 % 10.39 C
1481 05-06-2017 03:20:00 11 C 96 % 10.39 C
1482 05-06-2017 03:25:00 10.9 C 96 % 10.29 C
1483 05-06-2017 03:30:00 10.9 C 96 % 10.29 C
1484 05-06-2017 03:35:00 10.9 C 96 % 10.29 C
1485 05-06-2017 03:40:00 10.9 C 96 % 10.29 C
1486 05-06-2017 03:45:00 10.9 C 96 % 10.29 C
1487 05-06-2017 03:50:00 10.9 C 96 % 10.29 C
1488 05-06-2017 03:55:00 10.9 C 96 % 10.29 C
1489 05-06-2017 04:00:00 10.9 C 96 % 10.29 C
1490 05-06-2017 04:05:00 10.8 C 96 % 10.19 C
1491 05-06-2017 04:10:00 10.8 C 96 % 10.19 C
1492 05-06-2017 04:15:00 10.8 C 96 % 10.19 C
1493 05-06-2017 04:20:00 10.8 C 96 % 10.19 C
1494 05-06-2017 04:25:00 10.8 C 96 % 10.19 C
1495 05-06-2017 04:30:00 10.8 C 96 % 10.19 C
1496 05-06-2017 04:35:00 10.7 C 96 % 10.09 C
1497 05-06-2017 04:40:00 10.7 C 96 % 10.09 C
1498 05-06-2017 04:45:00 10.7 C 96 % 10.09 C
1499 05-06-2017 04:50:00 10.6 C 96 % 9.99 C
1500 05-06-2017 04:55:00 10.6 C 96 % 9.99 C
Sensor: Nr:Datum:Temp:Feuchte:Taupunkt:
Aussen-T/F 1501 05-06-2017 05:00:00 10.6 C 96 % 9.99 C
1502 05-06-2017 05:05:00 10.6 C 96 % 9.99 C
1503 05-06-2017 05:10:00 10.6 C 96 % 9.99 C
1504 05-06-2017 05:15:00 10.6 C 96 % 9.99 C
1505 05-06-2017 05:20:00 10.6 C 96 % 9.99 C
1506 05-06-2017 05:25:00 10.6 C 96 % 9.99 C
1507 05-06-2017 05:30:00 10.6 C 96 % 9.99 C
1508 05-06-2017 05:35:00 10.6 C 96 % 9.99 C
1509 05-06-2017 05:40:00 10.7 C 96 % 10.09 C
1510 05-06-2017 05:45:00 10.7 C 97 % 10.24 C
1511 05-06-2017 05:50:00 10.7 C 96 % 10.09 C
1512 05-06-2017 05:55:00 10.7 C 96 % 10.09 C
1513 05-06-2017 06:00:00 10.7 C 96 % 10.09 C
1514 05-06-2017 06:05:00 10.6 C 96 % 9.99 C
1515 05-06-2017 06:10:00 10.6 C 96 % 9.99 C
1516 05-06-2017 06:15:00 10.6 C 96 % 9.99 C
1517 05-06-2017 06:20:00 10.6 C 96 % 9.99 C
1518 05-06-2017 06:25:00 10.6 C 96 % 9.99 C
1519 05-06-2017 06:30:00 10.6 C 96 % 9.99 C
1520 05-06-2017 06:35:00 10.5 C 96 % 9.89 C
1521 05-06-2017 06:40:00 10.6 C 96 % 9.99 C
1522 05-06-2017 06:45:00 10.6 C 96 % 9.99 C
1523 05-06-2017 06:50:00 10.7 C 97 % 10.24 C
1524 05-06-2017 06:55:00 10.8 C 97 % 10.34 C
1525 05-06-2017 07:00:00 10.8 C 97 % 10.34 C
Sensor: Nr:Datum:Temp:Feuchte:Taupunkt:
Aussen-T/F 1526 05-06-2017 07:05:00 10.9 C 97 % 10.44 C
1527 05-06-2017 07:10:00 10.9 C 97 % 10.44 C
1528 05-06-2017 07:15:00 10.9 C 97 % 10.44 C
1529 05-06-2017 07:20:00 11 C 97 % 10.54 C
1530 05-06-2017 07:25:00 11.1 C 97 % 10.64 C
1531 05-06-2017 07:30:00 11.2 C 97 % 10.74 C
1532 05-06-2017 07:35:00 11.3 C 97 % 10.84 C
1533 05-06-2017 07:40:00 11.4 C 97 % 10.94 C
1534 05-06-2017 07:45:00 11.4 C 97 % 10.94 C
1535 05-06-2017 07:50:00 11.4 C 97 % 10.94 C
1536 05-06-2017 07:55:00 11.6 C 97 % 11.14 C
1537 05-06-2017 08:00:00 11.6 C 97 % 11.14 C
1538 05-06-2017 08:05:00 11.7 C 97 % 11.24 C
1539 05-06-2017 08:10:00 11.7 C 97 % 11.24 C
1540 05-06-2017 08:15:00 11.7 C 97 % 11.24 C
1541 05-06-2017 08:20:00 11.8 C 97 % 11.34 C
1542 05-06-2017 08:25:00 11.8 C 97 % 11.34 C
1543 05-06-2017 08:30:00 11.9 C 97 % 11.44 C
1544 05-06-2017 08:35:00 12.1 C 97 % 11.64 C
1545 05-06-2017 08:40:00 12.1 C 97 % 11.64 C
1546 05-06-2017 08:45:00 12.2 C 97 % 11.74 C
1547 05-06-2017 08:50:00 12.4 C 97 % 11.94 C
1548 05-06-2017 08:55:00 12.6 C 97 % 12.14 C
1549 05-06-2017 09:00:00 12.6 C 97 % 12.14 C
1550 05-06-2017 09:05:00 12.7 C 97 % 12.24 C
Sensor: Nr:Datum:Temp:Feuchte:Taupunkt:
Aussen-T/F 1551 05-06-2017 09:10:00 12.7 C 97 % 12.24 C
1552 05-06-2017 09:15:00 12.9 C 97 % 12.44 C
1553 05-06-2017 09:20:00 13 C 96 % 12.38 C
1554 05-06-2017 09:25:00 13.2 C 97 % 12.73 C
1555 05-06-2017 09:30:00 13.3 C 96 % 12.68 C
1556 05-06-2017 09:35:00 13.3 C 96 % 12.68 C
1557 05-06-2017 09:40:00 13.4 C 96 % 12.78 C
1558 05-06-2017 09:45:00 13.5 C 95 % 12.72 C
1559 05-06-2017 09:50:00 13.6 C 95 % 12.81 C
1560 05-06-2017 09:55:00 13.9 C 95 % 13.11 C
1561 05-06-2017 10:00:00 14.1 C 94 % 13.15 C
1562 05-06-2017 10:05:00 14.2 C 92 % 12.92 C
1563 05-06-2017 10:10:00 14.5 C 91 % 13.05 C
1564 05-06-2017 10:15:00 14.8 C 89 % 13.01 C
1565 05-06-2017 10:20:00 15.1 C 85 % 12.6 C
1566 05-06-2017 10:25:00 15.3 C 88 % 13.33 C
1567 05-06-2017 10:30:00 15.7 C 88 % 13.72 C
1568 05-06-2017 10:35:00 15.9 C 87 % 13.74 C
1569 05-06-2017 10:40:00 16.1 C 87 % 13.94 C
1570 05-06-2017 10:45:00 16.3 C 86 % 13.95 C
1571 05-06-2017 10:50:00 16.5 C 83 % 13.6 C
1572 05-06-2017 10:55:00 16.7 C 83 % 13.8 C
1573 05-06-2017 11:00:00 16.8 C 83 % 13.9 C
1574 05-06-2017 11:05:00 16.9 C 82 % 13.81 C
1575 05-06-2017 11:10:00 17.1 C 81 % 13.82 C
Sensor: Nr:Datum:Temp:Feuchte:Taupunkt:
Aussen-T/F 1576 05-06-2017 11:15:00 17.2 C 81 % 13.91 C
1577 05-06-2017 11:20:00 17.3 C 79 % 13.63 C
1578 05-06-2017 11:25:00 17.4 C 81 % 14.11 C
1579 05-06-2017 11:30:00 17.5 C 79 % 13.82 C
1580 05-06-2017 11:35:00 17.6 C 79 % 13.92 C
1581 05-06-2017 11:40:00 17.7 C 76 % 13.42 C
1582 05-06-2017 11:45:00 17.8 C 77 % 13.72 C
1583 05-06-2017 11:50:00 17.9 C 77 % 13.81 C
1584 05-06-2017 11:55:00 18.1 C 75 % 13.6 C
1585 05-06-2017 12:00:00 18.1 C 74 % 13.4 C
1586 05-06-2017 12:05:00 18.2 C 72 % 13.07 C
1587 05-06-2017 12:10:00 18.2 C 71 % 12.86 C
1588 05-06-2017 12:15:00 18.3 C 73 % 13.38 C
1589 05-06-2017 12:20:00 18.4 C 74 % 13.68 C
1590 05-06-2017 12:25:00 18.4 C 70 % 12.83 C
1591 05-06-2017 12:30:00 18.4 C 71 % 13.05 C
1592 05-06-2017 12:35:00 18.6 C 69 % 12.8 C
1593 05-06-2017 12:40:00 18.6 C 69 % 12.8 C
1594 05-06-2017 12:45:00 18.6 C 66 % 12.13 C
1595 05-06-2017 12:50:00 18.6 C 66 % 12.13 C
1596 05-06-2017 12:55:00 18.6 C 71 % 13.24 C
1597 05-06-2017 13:00:00 18.4 C 68 % 12.39 C
1598 05-06-2017 13:05:00 18.4 C 66 % 11.94 C
1599 05-06-2017 13:10:00 18.4 C 68 % 12.39 C
1600 05-06-2017 13:15:00 18.5 C 66 % 12.03 C
Sensor: Nr:Datum:Temp:Feuchte:Taupunkt:
Aussen-T/F 1601 05-06-2017 13:20:00 18.6 C 67 % 12.36 C
1602 05-06-2017 13:25:00 18.7 C 67 % 12.45 C
1603 05-06-2017 13:30:00 18.7 C 66 % 12.22 C
1604 05-06-2017 13:35:00 18.7 C 67 % 12.45 C
1605 05-06-2017 13:40:00 18.7 C 63 % 11.52 C
1606 05-06-2017 13:45:00 18.9 C 64 % 11.95 C
1607 05-06-2017 13:50:00 19 C 62 % 11.56 C
1608 05-06-2017 13:55:00 19 C 70 % 13.41 C
1609 05-06-2017 14:00:00 18.9 C 65 % 12.18 C
1610 05-06-2017 14:05:00 18.9 C 64 % 11.95 C
1611 05-06-2017 14:10:00 19 C 60 % 11.07 C
1612 05-06-2017 14:15:00 19.2 C 60 % 11.25 C
1613 05-06-2017 14:20:00 19.3 C 65 % 12.56 C
1614 05-06-2017 14:25:00 19.7 C 64 % 12.7 C
1615 05-06-2017 14:30:00 19.8 C 58 % 11.3 C
1616 05-06-2017 14:35:00 20.1 C 57 % 11.32 C
1617 05-06-2017 14:40:00 20.3 C 58 % 11.77 C
1618 05-06-2017 14:45:00 20.5 C 58 % 11.96 C
1619 05-06-2017 14:50:00 20.6 C 59 % 12.31 C
1620 05-06-2017 14:55:00 20.6 C 58 % 12.05 C
1621 05-06-2017 15:00:00 20.8 C 60 % 12.76 C
1622 05-06-2017 15:05:00 20.7 C 52 % 10.5 C
1623 05-06-2017 15:10:00 20.9 C 51 % 10.39 C
1624 05-06-2017 15:15:00 21.3 C 52 % 11.05 C
1625 05-06-2017 15:20:00 21.7 C 53 % 11.71 C
Sensor: Nr:Datum:Temp:Feuchte:Taupunkt:
Aussen-T/F 1626 05-06-2017 15:25:00 21.8 C 47 % 9.99 C
1627 05-06-2017 15:30:00 21.8 C 47 % 9.99 C
1628 05-06-2017 15:35:00 22.2 C 56 % 13.01 C
1629 05-06-2017 15:40:00 22.7 C 45 % 10.16 C
1630 05-06-2017 15:45:00 23.2 C 48 % 11.59 C
1631 05-06-2017 15:50:00 23.6 C 44 % 10.64 C
1632 05-06-2017 15:55:00 23.9 C 50 % 12.85 C
1633 05-06-2017 16:00:00 24.2 C 46 % 11.85 C
1634 05-06-2017 16:05:00 24.2 C 43 % 10.84 C
1635 05-06-2017 16:10:00 24.1 C 42 % 10.39 C
1636 05-06-2017 16:15:00 24.2 C 42 % 10.48 C
1637 05-06-2017 16:20:00 24.6 C 48 % 12.87 C
1638 05-06-2017 16:25:00 24.8 C 40 % 10.29 C
1639 05-06-2017 16:30:00 24.9 C 42 % 11.11 C
1640 05-06-2017 16:35:00 24.9 C 35 % 8.4 C
1641 05-06-2017 16:40:00 24.9 C 37 % 9.22 C
1642 05-06-2017 16:45:00 25.1 C 38 % 9.79 C
1643 05-06-2017 16:50:00 25.2 C 40 % 10.65 C
1644 05-06-2017 16:55:00 25.3 C 36 % 9.16 C
1645 05-06-2017 17:00:00 25.3 C 39 % 10.36 C
1646 05-06-2017 17:05:00 25.2 C 38 % 9.88 C
1647 05-06-2017 17:10:00 25.2 C 36 % 9.08 C
1648 05-06-2017 17:15:00 25.3 C 36 % 9.16 C
1649 05-06-2017 17:20:00 25.3 C 37 % 9.57 C
1650 05-06-2017 17:25:00 25.3 C 37 % 9.57 C
Sensor: Nr:Datum:Temp:Feuchte:Taupunkt:
Aussen-T/F 1651 05-06-2017 17:30:00 25.3 C 36 % 9.16 C
1652 05-06-2017 17:35:00 25.4 C 37 % 9.66 C
1653 05-06-2017 17:40:00 25.4 C 35 % 8.84 C
1654 05-06-2017 17:45:00 25.3 C 37 % 9.57 C
1655 05-06-2017 17:50:00 25.4 C 35 % 8.84 C
1656 05-06-2017 17:55:00 25.6 C 43 % 12.1 C
1657 05-06-2017 18:00:00 25.9 C 44 % 12.72 C
1658 05-06-2017 18:05:00 26.2 C 44 % 12.99 C
1659 05-06-2017 18:10:00 26.3 C 36 % 10.05 C
1660 05-06-2017 18:15:00 26.3 C 35 % 9.63 C
1661 05-06-2017 18:20:00 26.2 C 34 % 9.11 C
1662 05-06-2017 18:25:00 25.9 C 32 % 7.95 C
1663 05-06-2017 18:30:00 25.6 C 41 % 11.38 C
1664 05-06-2017 18:35:00 25.4 C 37 % 9.66 C
1665 05-06-2017 18:40:00 25.4 C 45 % 12.61 C
1666 05-06-2017 18:45:00 25.5 C 39 % 10.53 C
1667 05-06-2017 18:50:00 25.6 C 39 % 10.62 C
1668 05-06-2017 18:55:00 25.7 C 41 % 11.47 C
1669 05-06-2017 19:00:00 25.7 C 45 % 12.88 C
1670 05-06-2017 19:05:00 25.6 C 40 % 11 C
1671 05-06-2017 19:10:00 25.3 C 39 % 10.36 C
1672 05-06-2017 19:15:00 24.8 C 42 % 11.02 C
1673 05-06-2017 19:20:00 24.6 C 44 % 11.54 C
1674 05-06-2017 19:25:00 24.4 C 43 % 11.02 C
1675 05-06-2017 19:30:00 24.3 C 52 % 13.82 C
Sensor: Nr:Datum:Temp:Feuchte:Taupunkt:
Aussen-T/F 1676 05-06-2017 19:35:00 24.2 C 50 % 13.12 C
1677 05-06-2017 19:40:00 24.1 C 51 % 13.34 C
1678 05-06-2017 19:45:00 24.1 C 53 % 13.93 C
1679 05-06-2017 19:50:00 23.8 C 51 % 13.06 C
1680 05-06-2017 19:55:00 23.7 C 47 % 11.73 C
1681 05-06-2017 20:00:00 23.5 C 53 % 13.37 C
1682 05-06-2017 20:05:00 23.3 C 59 % 14.84 C
1683 05-06-2017 20:10:00 23.2 C 61 % 15.26 C
1684 05-06-2017 20:15:00 22.9 C 60 % 14.73 C
1685 05-06-2017 20:20:00 22.6 C 61 % 14.7 C
1686 05-06-2017 20:25:00 22.1 C 62 % 14.48 C
1687 05-06-2017 20:30:00 21.6 C 62 % 14.01 C
1688 05-06-2017 20:35:00 21.3 C 64 % 14.22 C
1689 05-06-2017 20:40:00 20.9 C 65 % 14.08 C
1690 05-06-2017 20:45:00 20.7 C 65 % 13.89 C
1691 05-06-2017 20:50:00 20.3 C 66 % 13.74 C
1692 05-06-2017 20:55:00 20 C 67 % 13.69 C
1693 05-06-2017 21:00:00 19.6 C 68 % 13.54 C
1694 05-06-2017 21:05:00 19.2 C 69 % 13.38 C
1695 05-06-2017 21:10:00 18.8 C 70 % 13.22 C
1696 05-06-2017 21:15:00 18.4 C 72 % 13.26 C
1697 05-06-2017 21:20:00 18.1 C 72 % 12.98 C
1698 05-06-2017 21:25:00 17.7 C 74 % 13.01 C
1699 05-06-2017 21:30:00 17.3 C 76 % 13.03 C
1700 05-06-2017 21:35:00 17 C 76 % 12.74 C
Sensor: Nr:Datum:Temp:Feuchte:Taupunkt:
Aussen-T/F 1701 05-06-2017 21:40:00 16.8 C 78 % 12.94 C
1702 05-06-2017 21:45:00 16.6 C 79 % 12.95 C
1703 05-06-2017 21:50:00 16.3 C 80 % 12.85 C
1704 05-06-2017 21:55:00 16.2 C 80 % 12.75 C
1705 05-06-2017 22:00:00 16 C 81 % 12.74 C
1706 05-06-2017 22:05:00 15.9 C 82 % 12.83 C
1707 05-06-2017 22:10:00 15.7 C 83 % 12.82 C
1708 05-06-2017 22:15:00 15.7 C 83 % 12.82 C
1709 05-06-2017 22:20:00 15.6 C 84 % 12.91 C
1710 05-06-2017 22:25:00 15.5 C 85 % 12.99 C
1711 05-06-2017 22:30:00 15.4 C 85 % 12.89 C
1712 05-06-2017 22:35:00 15.3 C 85 % 12.79 C
1713 05-06-2017 22:40:00 15.3 C 85 % 12.79 C
1714 05-06-2017 22:45:00 15.3 C 86 % 12.97 C
1715 05-06-2017 22:50:00 15.2 C 86 % 12.88 C
1716 05-06-2017 22:55:00 15.1 C 86 % 12.78 C
1717 05-06-2017 23:00:00 15 C 87 % 12.86 C
1718 05-06-2017 23:05:00 15 C 87 % 12.86 C
1719 05-06-2017 23:10:00 15 C 87 % 12.86 C
1720 05-06-2017 23:15:00 14.9 C 87 % 12.76 C
1721 05-06-2017 23:20:00 14.9 C 88 % 12.93 C
1722 05-06-2017 23:25:00 14.8 C 88 % 12.83 C
1723 05-06-2017 23:30:00 14.8 C 88 % 12.83 C
1724 05-06-2017 23:35:00 14.7 C 88 % 12.73 C
1725 05-06-2017 23:40:00 14.7 C 88 % 12.73 C
Sensor: Nr:Datum:Temp:Feuchte:Taupunkt:
Aussen-T/F 1726 05-06-2017 23:45:00 14.7 C 89 % 12.91 C
1727 05-06-2017 23:50:00 14.7 C 89 % 12.91 C
1728 05-06-2017 23:55:00 14.8 C 89 % 13.01 C
1729 06-06-2017 00:00:00 14.8 C 89 % 13.01 C
1730 06-06-2017 00:05:00 14.8 C 89 % 13.01 C
1731 06-06-2017 00:10:00 14.7 C 89 % 12.91 C
1732 06-06-2017 00:15:00 14.7 C 89 % 12.91 C
1733 06-06-2017 00:20:00 14.7 C 89 % 12.91 C
1734 06-06-2017 00:25:00 14.7 C 89 % 12.91 C
1735 06-06-2017 00:30:00 14.6 C 89 % 12.81 C
1736 06-06-2017 00:35:00 14.6 C 89 % 12.81 C
1737 06-06-2017 00:40:00 14.6 C 89 % 12.81 C
1738 06-06-2017 00:45:00 14.6 C 89 % 12.81 C
1739 06-06-2017 00:50:00 14.5 C 89 % 12.71 C
1740 06-06-2017 00:55:00 14.5 C 89 % 12.71 C
1741 06-06-2017 01:00:00 14.4 C 89 % 12.61 C
1742 06-06-2017 01:05:00 14.4 C 89 % 12.61 C
1743 06-06-2017 01:10:00 14.5 C 89 % 12.71 C
1744 06-06-2017 01:15:00 14.6 C 88 % 12.64 C
1745 06-06-2017 01:20:00 14.7 C 88 % 12.73 C
1746 06-06-2017 01:25:00 14.6 C 87 % 12.46 C
1747 06-06-2017 01:30:00 14.4 C 87 % 12.27 C
1748 06-06-2017 01:35:00 14.3 C 88 % 12.34 C
1749 06-06-2017 01:40:00 14.1 C 88 % 12.14 C
1750 06-06-2017 01:45:00 14 C 88 % 12.05 C
Sensor: Nr:Datum:Temp:Feuchte:Taupunkt:
Aussen-T/F 1751 06-06-2017 01:50:00 13.9 C 88 % 11.95 C
1752 06-06-2017 01:55:00 13.8 C 89 % 12.02 C
1753 06-06-2017 02:00:00 13.7 C 89 % 11.92 C
1754 06-06-2017 02:05:00 13.6 C 89 % 11.82 C
1755 06-06-2017 02:10:00 13.4 C 89 % 11.63 C
1756 06-06-2017 02:15:00 13.3 C 90 % 11.7 C
1757 06-06-2017 02:20:00 13.3 C 90 % 11.7 C
1758 06-06-2017 02:25:00 13.2 C 90 % 11.6 C
1759 06-06-2017 02:30:00 13.2 C 90 % 11.6 C
1760 06-06-2017 02:35:00 13.1 C 90 % 11.5 C
1761 06-06-2017 02:40:00 13.1 C 91 % 11.67 C
1762 06-06-2017 02:45:00 13.1 C 91 % 11.67 C
1763 06-06-2017 02:50:00 13.1 C 91 % 11.67 C
1764 06-06-2017 02:55:00 13 C 91 % 11.57 C
1765 06-06-2017 03:00:00 12.9 C 91 % 11.47 C
1766 06-06-2017 03:05:00 12.9 C 91 % 11.47 C
1767 06-06-2017 03:10:00 12.8 C 91 % 11.37 C
1768 06-06-2017 03:15:00 12.8 C 91 % 11.37 C
1769 06-06-2017 03:20:00 12.8 C 91 % 11.37 C
1770 06-06-2017 03:25:00 12.8 C 92 % 11.53 C
1771 06-06-2017 03:30:00 12.8 C 92 % 11.53 C
1772 06-06-2017 03:35:00 12.8 C 92 % 11.53 C
1773 06-06-2017 03:40:00 12.8 C 92 % 11.53 C
1774 06-06-2017 03:45:00 12.8 C 92 % 11.53 C
1775 06-06-2017 03:50:00 12.7 C 92 % 11.43 C
Sensor: Nr:Datum:Temp:Feuchte:Taupunkt:
Aussen-T/F 1776 06-06-2017 03:55:00 12.7 C 92 % 11.43 C
1777 06-06-2017 04:00:00 12.7 C 92 % 11.43 C
1778 06-06-2017 04:05:00 12.7 C 92 % 11.43 C
1779 06-06-2017 04:10:00 12.6 C 92 % 11.34 C
1780 06-06-2017 04:15:00 12.6 C 92 % 11.34 C
1781 06-06-2017 04:20:00 12.6 C 92 % 11.34 C
1782 06-06-2017 04:25:00 12.6 C 92 % 11.34 C
1783 06-06-2017 04:30:00 12.6 C 92 % 11.34 C
1784 06-06-2017 04:35:00 12.5 C 92 % 11.24 C
1785 06-06-2017 04:40:00 12.5 C 93 % 11.4 C
1786 06-06-2017 04:45:00 12.5 C 93 % 11.4 C
1787 06-06-2017 04:50:00 12.4 C 93 % 11.3 C
1788 06-06-2017 04:55:00 12.4 C 93 % 11.3 C
1789 06-06-2017 05:00:00 12.4 C 93 % 11.3 C
1790 06-06-2017 05:05:00 12.4 C 93 % 11.3 C
1791 06-06-2017 05:10:00 12.4 C 93 % 11.3 C
1792 06-06-2017 05:15:00 12.4 C 93 % 11.3 C
1793 06-06-2017 05:20:00 12.4 C 93 % 11.3 C
1794 06-06-2017 05:25:00 12.4 C 93 % 11.3 C
1795 06-06-2017 05:30:00 12.4 C 93 % 11.3 C
1796 06-06-2017 05:35:00 12.4 C 93 % 11.3 C
1797 06-06-2017 05:40:00 12.4 C 93 % 11.3 C
1798 06-06-2017 05:45:00 12.5 C 93 % 11.4 C
1799 06-06-2017 05:50:00 12.6 C 93 % 11.5 C
1800 06-06-2017 05:55:00 12.6 C 93 % 11.5 C
Sensor: Nr:Datum:Temp:Feuchte:Taupunkt:
Aussen-T/F 1801 06-06-2017 06:00:00 12.6 C 93 % 11.5 C
1802 06-06-2017 06:05:00 12.6 C 93 % 11.5 C
1803 06-06-2017 06:10:00 12.7 C 93 % 11.6 C
1804 06-06-2017 06:15:00 12.7 C 93 % 11.6 C
1805 06-06-2017 06:20:00 12.8 C 93 % 11.7 C
1806 06-06-2017 06:25:00 12.8 C 93 % 11.7 C
1807 06-06-2017 06:30:00 12.8 C 93 % 11.7 C
1808 06-06-2017 06:35:00 12.9 C 93 % 11.8 C
1809 06-06-2017 06:40:00 13.1 C 92 % 11.83 C
1810 06-06-2017 06:45:00 13.3 C 92 % 12.03 C
1811 06-06-2017 06:50:00 13.6 C 91 % 12.16 C
1812 06-06-2017 06:55:00 13.8 C 90 % 12.19 C
1813 06-06-2017 07:00:00 14.2 C 90 % 12.58 C
1814 06-06-2017 07:05:00 14.3 C 90 % 12.68 C
1815 06-06-2017 07:10:00 14.4 C 88 % 12.44 C
1816 06-06-2017 07:15:00 14.6 C 88 % 12.64 C
1817 06-06-2017 07:20:00 14.8 C 86 % 12.48 C
1818 06-06-2017 07:25:00 15.1 C 85 % 12.6 C
1819 06-06-2017 07:30:00 15.2 C 86 % 12.88 C
1820 06-06-2017 07:35:00 15.4 C 86 % 13.07 C
1821 06-06-2017 07:40:00 15.4 C 84 % 12.71 C
1822 06-06-2017 07:45:00 15.6 C 85 % 13.09 C
1823 06-06-2017 07:50:00 15.7 C 83 % 12.82 C
1824 06-06-2017 07:55:00 15.8 C 83 % 12.92 C
1825 06-06-2017 08:00:00 16 C 82 % 12.93 C
Sensor: Nr:Datum:Temp:Feuchte:Taupunkt:
Aussen-T/F 1826 06-06-2017 08:05:00 16.2 C 82 % 13.13 C
1827 06-06-2017 08:10:00 16.3 C 81 % 13.04 C
1828 06-06-2017 08:15:00 16.3 C 81 % 13.04 C
1829 06-06-2017 08:20:00 16.4 C 83 % 13.51 C
1830 06-06-2017 08:25:00 16.3 C 83 % 13.41 C
1831 06-06-2017 08:30:00 16.3 C 83 % 13.41 C
1832 06-06-2017 08:35:00 16.3 C 83 % 13.41 C
1833 06-06-2017 08:40:00 16.3 C 84 % 13.59 C
1834 06-06-2017 08:45:00 16.3 C 84 % 13.59 C
1835 06-06-2017 08:50:00 16.3 C 80 % 12.85 C
1836 06-06-2017 08:55:00 16.4 C 78 % 12.56 C
1837 06-06-2017 09:00:00 16.4 C 77 % 12.36 C
1838 06-06-2017 09:05:00 16.5 C 76 % 12.26 C
1839 06-06-2017 09:10:00 16.6 C 76 % 12.36 C
1840 06-06-2017 09:15:00 16.5 C 76 % 12.26 C
1841 06-06-2017 09:20:00 16.5 C 77 % 12.46 C
1842 06-06-2017 09:25:00 16.6 C 77 % 12.55 C
1843 06-06-2017 09:30:00 16.5 C 78 % 12.65 C
1844 06-06-2017 09:35:00 16.6 C 78 % 12.75 C
1845 06-06-2017 09:40:00 16.6 C 78 % 12.75 C
1846 06-06-2017 09:45:00 16.7 C 77 % 12.65 C
1847 06-06-2017 09:50:00 16.8 C 78 % 12.94 C
1848 06-06-2017 09:55:00 16.9 C 75 % 12.44 C
1849 06-06-2017 10:00:00 17 C 78 % 13.14 C
1850 06-06-2017 10:05:00 17.1 C 76 % 12.84 C
Sensor: Nr:Datum:Temp:Feuchte:Taupunkt:
Aussen-T/F 1851 06-06-2017 10:10:00 17.2 C 75 % 12.73 C
1852 06-06-2017 10:15:00 17.3 C 74 % 12.62 C
1853 06-06-2017 10:20:00 17.4 C 74 % 12.72 C
1854 06-06-2017 10:25:00 17.4 C 74 % 12.72 C
1855 06-06-2017 10:30:00 17.3 C 75 % 12.83 C
1856 06-06-2017 10:35:00 17.2 C 76 % 12.94 C
1857 06-06-2017 10:40:00 17.2 C 77 % 13.14 C
1858 06-06-2017 10:45:00 17.1 C 76 % 12.84 C
1859 06-06-2017 10:50:00 17.1 C 78 % 13.24 C
1860 06-06-2017 10:55:00 17.2 C 77 % 13.14 C
1861 06-06-2017 11:00:00 17.2 C 79 % 13.53 C
1862 06-06-2017 11:05:00 17.1 C 80 % 13.62 C
1863 06-06-2017 11:10:00 16.9 C 80 % 13.43 C
1864 06-06-2017 11:15:00 16.8 C 80 % 13.33 C
1865 06-06-2017 11:20:00 16.7 C 80 % 13.23 C
1866 06-06-2017 11:25:00 16.9 C 82 % 13.81 C
1867 06-06-2017 11:30:00 17.2 C 80 % 13.72 C
1868 06-06-2017 11:35:00 17.6 C 80 % 14.11 C
1869 06-06-2017 11:40:00 17.9 C 79 % 14.21 C
1870 06-06-2017 11:45:00 18.1 C 77 % 14.01 C
1871 06-06-2017 11:50:00 17.9 C 79 % 14.21 C
1872 06-06-2017 11:55:00 17.8 C 78 % 13.91 C
1873 06-06-2017 12:00:00 17.7 C 79 % 14.01 C
1874 06-06-2017 12:05:00 17.7 C 79 % 14.01 C
1875 06-06-2017 12:10:00 17.8 C 79 % 14.11 C
Sensor: Nr:Datum:Temp:Feuchte:Taupunkt:
Aussen-T/F 1876 06-06-2017 12:15:00 17.9 C 78 % 14.01 C
1877 06-06-2017 12:20:00 17.9 C 79 % 14.21 C
1878 06-06-2017 12:25:00 18.1 C 78 % 14.21 C
1879 06-06-2017 12:30:00 18.2 C 79 % 14.5 C
1880 06-06-2017 12:35:00 18.1 C 78 % 14.21 C
1881 06-06-2017 12:40:00 17.9 C 78 % 14.01 C
1882 06-06-2017 12:45:00 17.8 C 82 % 14.69 C
1883 06-06-2017 12:50:00 17.6 C 80 % 14.11 C
1884 06-06-2017 12:55:00 17.6 C 79 % 13.92 C
1885 06-06-2017 13:00:00 17.5 C 79 % 13.82 C
1886 06-06-2017 13:05:00 17.7 C 77 % 13.62 C
1887 06-06-2017 13:10:00 17.9 C 74 % 13.2 C
1888 06-06-2017 13:15:00 17.8 C 71 % 12.47 C
1889 06-06-2017 13:20:00 17.8 C 69 % 12.04 C
1890 06-06-2017 13:25:00 17.8 C 67 % 11.6 C
1891 06-06-2017 13:30:00 17.8 C 68 % 11.82 C
1892 06-06-2017 13:35:00 17.8 C 68 % 11.82 C
1893 06-06-2017 13:40:00 18 C 69 % 12.23 C
1894 06-06-2017 13:45:00 18.1 C 67 % 11.88 C
1895 06-06-2017 13:50:00 18.2 C 67 % 11.98 C
1896 06-06-2017 13:55:00 18.3 C 65 % 11.61 C
1897 06-06-2017 14:00:00 18.6 C 62 % 11.18 C
1898 06-06-2017 14:05:00 18.7 C 59 % 10.53 C
1899 06-06-2017 14:10:00 18.8 C 58 % 10.37 C
1900 06-06-2017 14:15:00 18.8 C 57 % 10.11 C
Sensor: Nr:Datum:Temp:Feuchte:Taupunkt:
Aussen-T/F 1901 06-06-2017 14:20:00 18.8 C 56 % 9.84 C
1902 06-06-2017 14:25:00 18.7 C 58 % 10.28 C
1903 06-06-2017 14:30:00 18.6 C 59 % 10.44 C
1904 06-06-2017 14:35:00 18.3 C 56 % 9.38 C
1905 06-06-2017 14:40:00 18.3 C 58 % 9.9 C
1906 06-06-2017 14:45:00 18.5 C 59 % 10.34 C
1907 06-06-2017 14:50:00 18.8 C 59 % 10.63 C
1908 06-06-2017 14:55:00 19.1 C 54 % 9.58 C
1909 06-06-2017 15:00:00 19.4 C 57 % 10.67 C
1910 06-06-2017 15:05:00 19.6 C 56 % 10.59 C
1911 06-06-2017 15:10:00 19.9 C 57 % 11.14 C
1912 06-06-2017 15:15:00 20.3 C 52 % 10.13 C
1913 06-06-2017 15:20:00 20.6 C 48 % 9.21 C
1914 06-06-2017 15:25:00 20.4 C 48 % 9.03 C
1915 06-06-2017 15:30:00 20.4 C 47 % 8.72 C
1916 06-06-2017 15:35:00 20.4 C 47 % 8.72 C
1917 06-06-2017 15:40:00 20.6 C 47 % 8.9 C
1918 06-06-2017 15:45:00 20.4 C 50 % 9.64 C
1919 06-06-2017 15:50:00 20.5 C 47 % 8.81 C
1920 06-06-2017 15:55:00 20.4 C 48 % 9.03 C
1921 06-06-2017 16:00:00 20.7 C 45 % 8.35 C
1922 06-06-2017 16:05:00 20.4 C 46 % 8.4 C
1923 06-06-2017 16:10:00 20.2 C 46 % 8.22 C
1924 06-06-2017 16:15:00 20.1 C 46 % 8.13 C
1925 06-06-2017 16:20:00 20.1 C 47 % 8.45 C
Sensor: Nr:Datum:Temp:Feuchte:Taupunkt:
Aussen-T/F 1926 06-06-2017 16:25:00 19.6 C 49 % 8.6 C
1927 06-06-2017 16:30:00 19.1 C 52 % 9.02 C
1928 06-06-2017 16:35:00 19.3 C 56 % 10.31 C
1929 06-06-2017 16:40:00 19.7 C 51 % 9.29 C
1930 06-06-2017 16:45:00 19.6 C 55 % 10.32 C
1931 06-06-2017 16:50:00 19.2 C 53 % 9.4 C
1932 06-06-2017 16:55:00 18.6 C 53 % 8.84 C
1933 06-06-2017 17:00:00 17.7 C 59 % 9.59 C
1934 06-06-2017 17:05:00 17.1 C 61 % 9.53 C
1935 06-06-2017 17:10:00 16.7 C 65 % 10.09 C
1936 06-06-2017 17:15:00 16.2 C 70 % 10.73 C
1937 06-06-2017 17:20:00 15.4 C 74 % 10.79 C
1938 06-06-2017 17:25:00 14.8 C 77 % 10.81 C
1939 06-06-2017 17:30:00 14.4 C 80 % 11 C
1940 06-06-2017 17:35:00 14.2 C 82 % 11.17 C
1941 06-06-2017 17:40:00 14.1 C 82 % 11.08 C
1942 06-06-2017 17:45:00 14.4 C 83 % 11.55 C
1943 06-06-2017 17:50:00 15.4 C 80 % 11.97 C
1944 06-06-2017 17:55:00 16.6 C 72 % 11.54 C
1945 06-06-2017 18:00:00 17.3 C 69 % 11.56 C
1946 06-06-2017 18:05:00 17.8 C 64 % 10.9 C
1947 06-06-2017 18:10:00 18.1 C 65 % 11.42 C
1948 06-06-2017 18:15:00 17.8 C 62 % 10.43 C
1949 06-06-2017 18:20:00 17.4 C 62 % 10.05 C
1950 06-06-2017 18:25:00 17.5 C 64 % 10.62 C
Sensor: Nr:Datum:Temp:Feuchte:Taupunkt:
Aussen-T/F 1951 06-06-2017 18:30:00 17.6 C 62 % 10.24 C
1952 06-06-2017 18:35:00 17.2 C 61 % 9.62 C
1953 06-06-2017 18:40:00 16.9 C 61 % 9.34 C
1954 06-06-2017 18:45:00 17.4 C 62 % 10.05 C
1955 06-06-2017 18:50:00 18.1 C 60 % 10.22 C
1956 06-06-2017 18:55:00 18.3 C 57 % 9.64 C
1957 06-06-2017 19:00:00 18.5 C 56 % 9.57 C
1958 06-06-2017 19:05:00 18.5 C 55 % 9.3 C
1959 06-06-2017 19:10:00 18.2 C 52 % 8.19 C
1960 06-06-2017 19:15:00 17.8 C 53 % 8.1 C
1961 06-06-2017 19:20:00 17.6 C 55 % 8.46 C
1962 06-06-2017 19:25:00 17.3 C 55 % 8.18 C
1963 06-06-2017 19:30:00 16.8 C 56 % 7.98 C
1964 06-06-2017 19:35:00 16.4 C 59 % 8.38 C
1965 06-06-2017 19:40:00 16.1 C 61 % 8.58 C
1966 06-06-2017 19:45:00 15.8 C 61 % 8.3 C
1967 06-06-2017 19:50:00 15.6 C 62 % 8.35 C
1968 06-06-2017 19:55:00 15.4 C 62 % 8.16 C
1969 06-06-2017 20:00:00 15.3 C 64 % 8.54 C
1970 06-06-2017 20:05:00 15.1 C 65 % 8.58 C
1971 06-06-2017 20:10:00 14.9 C 73 % 10.11 C
1972 06-06-2017 20:15:00 13.8 C 73 % 9.05 C
1973 06-06-2017 20:20:00 13 C 77 % 9.07 C
1974 06-06-2017 20:25:00 12.4 C 80 % 9.05 C
1975 06-06-2017 20:30:00 12.1 C 81 % 8.94 C
Sensor: Nr:Datum:Temp:Feuchte:Taupunkt:
Aussen-T/F 1976 06-06-2017 20:35:00 11.8 C 83 % 9.01 C
1977 06-06-2017 20:40:00 11.7 C 83 % 8.91 C
1978 06-06-2017 20:45:00 11.4 C 82 % 8.44 C
1979 06-06-2017 20:50:00 11.3 C 82 % 8.34 C
1980 06-06-2017 20:55:00 11.2 C 83 % 8.42 C
1981 06-06-2017 21:00:00 11.2 C 83 % 8.42 C
1982 06-06-2017 21:05:00 11.1 C 82 % 8.15 C
1983 06-06-2017 21:10:00 11.1 C 83 % 8.33 C
1984 06-06-2017 21:15:00 11.1 C 83 % 8.33 C
1985 06-06-2017 21:20:00 11.1 C 83 % 8.33 C
1986 06-06-2017 21:25:00 11 C 83 % 8.23 C
1987 06-06-2017 21:30:00 10.9 C 84 % 8.31 C
1988 06-06-2017 21:35:00 10.8 C 84 % 8.21 C
1989 06-06-2017 21:40:00 10.7 C 84 % 8.11 C
1990 06-06-2017 21:45:00 10.6 C 85 % 8.19 C
1991 06-06-2017 21:50:00 10.6 C 85 % 8.19 C
1992 06-06-2017 21:55:00 10.5 C 85 % 8.09 C
1993 06-06-2017 22:00:00 10.4 C 86 % 8.16 C
1994 06-06-2017 22:05:00 10.4 C 86 % 8.16 C
1995 06-06-2017 22:10:00 10.4 C 86 % 8.16 C
1996 06-06-2017 22:15:00 10.3 C 86 % 8.06 C
1997 06-06-2017 22:20:00 10.3 C 86 % 8.06 C
1998 06-06-2017 22:25:00 10.3 C 86 % 8.06 C
1999 06-06-2017 22:30:00 10.3 C 85 % 7.89 C
2000 06-06-2017 22:35:00 10.4 C 85 % 7.99 C
Sensor: Nr:Datum:Temp:Feuchte:Taupunkt:
Aussen-T/F 2001 06-06-2017 22:40:00 10.5 C 85 % 8.09 C
2002 06-06-2017 22:45:00 10.6 C 85 % 8.19 C
2003 06-06-2017 22:50:00 10.6 C 85 % 8.19 C
2004 06-06-2017 22:55:00 10.6 C 85 % 8.19 C
2005 06-06-2017 23:00:00 10.5 C 85 % 8.09 C
2006 06-06-2017 23:05:00 10.4 C 85 % 7.99 C
2007 06-06-2017 23:10:00 10.4 C 86 % 8.16 C
2008 06-06-2017 23:15:00 10.4 C 86 % 8.16 C
2009 06-06-2017 23:20:00 10.4 C 85 % 7.99 C
2010 06-06-2017 23:25:00 10.4 C 85 % 7.99 C
2011 06-06-2017 23:30:00 10.4 C 85 % 7.99 C
2012 06-06-2017 23:35:00 10.4 C 84 % 7.82 C
2013 06-06-2017 23:40:00 10.3 C 84 % 7.72 C
2014 06-06-2017 23:45:00 10.3 C 85 % 7.89 C
2015 06-06-2017 23:50:00 10.2 C 85 % 7.79 C
2016 06-06-2017 23:55:00 10.2 C 85 % 7.79 C

Legende:
   Min
   Max


Maximal/Minimal-Werte vom 31.05.2017 - 06.06.2017

Sensor Min Max Avg
Temp
(Aussen-T/F)
10.2 °C
06-06-2017  23:50:00
29.4 °C
01-06-2017  17:10:00
17.67 °C
Feuchte
(Aussen-T/F)
32 %
05-06-2017  18:25:00
97 %
03-06-2017  06:40:00
79.51 %
Taupunkt
(Aussen-T/F)
7.72 C
06-06-2017  23:40:00
21.68 C
03-06-2017  18:00:00
13.62 C

Die Daten stammen von einer Davis Vantage Pro 2 Wetter-Station und werden unter Linux mit der Software wview2wettercgi und aufbereitet. Alle Angaben erfolgen ohne Gewähr für ihre Vollständigkeit oder Richtigkeit.
Kontakt: Rainer Krienke krienke@uni-koblenz.de . Meine Webseiten an der Uni Koblenz oder privat.
Version: $Revision: 0.78 $